UA5889 / N206SY 7700 Squawk Report (20th of September, 2021)

Aircraft E75L Reg No. N206SY Age 4 years old
Model Emb-175 Jet engines 2 First flight 06-02-17
Registered 03-03-17 Rollout 01-17 Delivered 17-03-17
Construction No. 17000637 Line No. N/A Series 200LR
ADSHEX A1A9F4 Airline name United Express Owner SkyWest Airlines
Airfield based Chicago O`Hare~IL~N First tracked N/A

Flight history for N206SY

Route Flight No Date Playback
San Francisco Intl (SFO) - Dallas Fort Worth (DFW) UA5483 2021-10-21 22:33:00
Phoenix Sky Harbor Intl (PHX) - San Francisco Intl (SFO) UA5531 2021-10-21 17:35:00
San Francisco Intl (SFO) - Phoenix Sky Harbor Intl (PHX) UA5383 2021-10-21 01:58:00
San Luis County Regional Airport (SBP) - San Francisco Intl (SFO) UA5756 2021-10-20 22:59:00
Denver Intl (DEN) - San Luis County Regional Airport (SBP) UA5593 2021-10-20 21:04:00
Hector International Airport (FAR) - Denver Intl (DEN) UA5414 2021-10-20 18:19:00
Denver Intl (DEN) - Hector International Airport (FAR) UA4682 2021-10-20 01:13:00
Portland Intl (PDX) - Denver Intl (DEN) UA5581 2021-10-19 20:29:00
Denver Intl (DEN) - Portland Intl (PDX) UA4697 2021-10-19 16:31:00
Grand Junction Regional (GJT) - Denver Intl (DEN) UA5804 2021-10-19 12:59:00
Denver Intl (DEN) - Grand Junction Regional (GJT) UA4722 2021-10-19 03:59:00
Idaho Falls Rgnl (IDA) - Denver Intl (DEN) UA5917 2021-10-19 02:01:00
Denver Intl (DEN) - Idaho Falls Rgnl (IDA) UA5322 2021-10-18 22:27:00
Portland Intl (PDX) - Denver Intl (DEN) UA5581 2021-10-18 21:53:00
Denver Intl (DEN) - Portland Intl (PDX) UA4697 2021-10-18 16:17:00
Grand Junction Regional (GJT) - Denver Intl (DEN) UA5804 2021-10-18 13:53:00
Denver Intl (DEN) - Grand Junction Regional (GJT) UA5314 2021-10-18 02:20:00
Savannah Hilton Head Intl (SAV) - Denver Intl (DEN) UA5812 2021-10-18 00:11:00
Denver Intl (DEN) - Savannah Hilton Head Intl (SAV) UA5755 2021-10-17 20:59:00
Grand Junction Regional (GJT) - Denver Intl (DEN) UA5852 2021-10-17 14:40:00
Time Lat Lon Altitude Heading Speed Vertical Rate
2021-09-20 21:48:19 GMT 32.118633 -110.935791 0 5 8 0
2021-09-20 21:48:11 GMT 32.118343 -110.935852 0 19 12 0
2021-09-20 21:48:01 GMT 32.117912 -110.936195 0 45 12 0
2021-09-20 21:47:51 GMT 32.117615 -110.936752 0 78 11 0
2021-09-20 21:47:39 GMT 32.117661 -110.937317 0 109 9 0
2021-09-20 21:47:29 GMT 32.117661 -110.937828 0 59 9 0
2021-09-20 21:47:18 GMT 32.117447 -110.938232 0 81 8 0
2021-09-20 21:47:08 GMT 32.117577 -110.938652 0 132 9 0
2021-09-20 21:46:57 GMT 32.117844 -110.938995 0 135 9 0
2021-09-20 21:46:45 GMT 32.118347 -110.939583 0 135 13 0
2021-09-20 21:46:36 GMT 32.118656 -110.939941 0 135 13 0
2021-09-20 21:46:25 GMT 32.119007 -110.940598 0 78 13 0
2021-09-20 21:46:16 GMT 32.118587 -110.940948 0 5 18 0
2021-09-20 21:46:04 GMT 32.117455 -110.940796 0 329 28 0
2021-09-20 21:45:55 GMT 32.116241 -110.939514 2,550 315 52 0
2021-09-20 21:45:43 GMT 32.113907 -110.936813 2,550 316 79 -128
2021-09-20 21:45:33 GMT 32.110565 -110.932968 2,550 316 106 -64
2021-09-20 21:45:22 GMT 32.106537 -110.928185 2,575 315 134 -192
2021-09-20 21:45:13 GMT 32.101864 -110.922676 2,625 316 140 -704
2021-09-20 21:45:01 GMT 32.096970 -110.916977 2,750 315 138 -704
2021-09-20 21:44:52 GMT 32.092300 -110.911430 2,975 316 136 -704
2021-09-20 21:44:40 GMT 32.087677 -110.906052 3,050 315 139 -640
2021-09-20 21:44:30 GMT 32.082825 -110.900368 3,150 316 139 -512
2021-09-20 21:44:27 GMT 32.081223 -110.898468 3,150 316 139 -512
2021-09-20 21:44:20 GMT 32.077984 -110.894707 3,225 315 143 -896
2021-09-20 21:44:14 GMT 32.075748 -110.892014 3,325 315 142 -1024
2021-09-20 21:44:09 GMT 32.073029 -110.888855 3,500 315 141 -1152
2021-09-20 21:43:59 GMT 32.067856 -110.882759 3,550 316 140 -768
2021-09-20 21:43:53 GMT 32.065926 -110.880470 3,600 315 140 -512
2021-09-20 21:43:48 GMT 32.062248 -110.876152 3,675 315 141 -960
2021-09-20 21:43:37 GMT 32.057873 -110.871109 3,825 315 145 -768
2021-09-20 21:43:28 GMT 32.053730 -110.866173 3,900 315 143 -640
2021-09-20 21:43:16 GMT 32.047897 -110.859360 4,075 315 151 -832
2021-09-20 21:43:07 GMT 32.043274 -110.853973 4,200 316 157 -768
2021-09-20 21:43:04 GMT 32.042450 -110.853043 4,225 316 158 -704
2021-09-20 21:42:55 GMT 32.037018 -110.846672 4,325 316 168 -704
2021-09-20 21:42:43 GMT 32.030827 -110.839386 4,450 315 184 -512
2021-09-20 21:42:33 GMT 32.023956 -110.831398 4,550 315 193 64
2021-09-20 21:42:23 GMT 32.017746 -110.824196 4,600 316 191 -320
2021-09-20 21:42:12 GMT 32.010902 -110.816177 4,700 316 197 -448
2021-09-20 21:42:01 GMT 32.003174 -110.807388 4,850 317 205 -512
2021-09-20 21:41:51 GMT 31.996536 -110.799644 4,850 316 219 -320
2021-09-20 21:41:41 GMT 31.987997 -110.790390 5,000 319 230 -704
2021-09-20 21:41:30 GMT 31.980194 -110.781738 5,050 313 225 -512
2021-09-20 21:41:20 GMT 31.973373 -110.770859 5,150 294 238 -1216
2021-09-20 21:41:09 GMT 31.971333 -110.756821 5,325 268 243 -768
2021-09-20 21:40:58 GMT 31.973694 -110.742844 5,475 255 249 -1024
2021-09-20 21:40:49 GMT 31.976545 -110.730469 5,600 255 256 -896
2021-09-20 21:40:46 GMT 31.976990 -110.728622 5,625 255 256 -832
2021-09-20 21:40:37 GMT 31.980316 -110.714165 5,775 256 264 -768
2021-09-20 21:40:26 GMT 31.983490 -110.699783 5,975 256 269 -1280
2021-09-20 21:40:15 GMT 31.987015 -110.684563 6,100 255 268 -512
2021-09-20 21:40:05 GMT 31.990559 -110.668930 6,300 256 271 -1472
2021-09-20 21:39:53 GMT 31.994019 -110.653801 6,450 256 271 -320
2021-09-20 21:39:44 GMT 31.997215 -110.639832 6,575 256 271 -192
2021-09-20 21:39:32 GMT 32.000931 -110.623367 6,800 256 276 -1856
2021-09-20 21:39:22 GMT 32.004383 -110.607994 7,025 256 278 -1280
2021-09-20 21:39:12 GMT 32.007645 -110.593872 7,275 255 280 -1600
2021-09-20 21:39:02 GMT 32.011322 -110.577667 7,575 255 276 -1344
2021-09-20 21:38:56 GMT 32.012878 -110.570747 7,675 256 273 -1472
2021-09-20 21:38:51 GMT 32.014626 -110.563103 7,800 255 272 -1280
2021-09-20 21:38:44 GMT 32.016678 -110.554100 7,950 256 272 -1536
2021-09-20 21:38:41 GMT 32.018097 -110.547783 8,050 256 273 -1408
2021-09-20 21:38:36 GMT 32.019241 -110.542618 8,125 256 274 -1472
2021-09-20 21:38:30 GMT 32.021423 -110.533058 8,300 255 276 -1664
2021-09-20 21:38:25 GMT 32.022911 -110.526611 8,400 256 278 -1536
2021-09-20 21:38:20 GMT 32.024868 -110.517868 8,600 256 277 -1856
2021-09-20 21:38:15 GMT 32.026337 -110.511253 8,675 256 277 -832
2021-09-20 21:38:11 GMT 32.028076 -110.503510 8,800 256 277 -1664
2021-09-20 21:38:08 GMT 32.028404 -110.502060 9,025 255 276 -2112
2021-09-20 21:38:05 GMT 32.029633 -110.496536 8,950 255 276 -2112
2021-09-20 21:37:58 GMT 32.031944 -110.486366 9,200 256 275 -2176
2021-09-20 21:37:54 GMT 32.033108 -110.481148 9,325 256 275 -2112
2021-09-20 21:37:50 GMT 32.034691 -110.474197 9,550 256 276 -2048
2021-09-20 21:37:47 GMT 32.035854 -110.469101 9,625 256 278 -1920
2021-09-20 21:37:44 GMT 32.036507 -110.466240 9,675 256 279 -2048
2021-09-20 21:37:39 GMT 32.038227 -110.458504 9,825 255 284 -1536
2021-09-20 21:37:36 GMT 32.038925 -110.455368 9,875 255 285 -1664
2021-09-20 21:37:33 GMT 32.039997 -110.450661 9,975 256 289 -1728
2021-09-20 21:37:27 GMT 32.042587 -110.439133 10,175 256 297 -1728
2021-09-20 21:37:23 GMT 32.043686 -110.434128 10,275 256 300 -1600
2021-09-20 21:37:16 GMT 32.046234 -110.422913 10,475 256 309 -1984
2021-09-20 21:37:12 GMT 32.047485 -110.417320 10,600 256 312 -1920
2021-09-20 21:37:06 GMT 32.051403 -110.399872 10,825 256 318 -1728
2021-09-20 21:37:02 GMT 32.051403 -110.399872 10,900 256 320 -1664
2021-09-20 21:36:55 GMT 32.054474 -110.386253 11,150 256 327 -2240
2021-09-20 21:36:50 GMT 32.055733 -110.380539 11,300 256 328 -2816
2021-09-20 21:36:46 GMT 32.057594 -110.372238 11,600 255 331 -2816
2021-09-20 21:36:43 GMT 32.058746 -110.367111 11,600 255 331 -2816
2021-09-20 21:36:40 GMT 32.059616 -110.363487 11,750 255 331 -2624
2021-09-20 21:36:34 GMT 32.063461 -110.350693 12,075 247 332 -2816
2021-09-20 21:36:30 GMT 32.065369 -110.345779 12,225 244 331 -2816
2021-09-20 21:36:23 GMT 32.071381 -110.333389 12,600 236 333 -2752
2021-09-20 21:36:20 GMT 32.073486 -110.329819 12,700 234 333 -2816
2021-09-20 21:36:13 GMT 32.081100 -110.318878 13,075 225 344 -2112
2021-09-20 21:36:09 GMT 32.084175 -110.315063 13,175 226 338 -2368
2021-09-20 21:36:01 GMT 32.094463 -110.303017 13,500 225 344 -2112
2021-09-20 21:35:58 GMT 32.096008 -110.301140 13,550 225 345 -2176
2021-09-20 21:35:53 GMT 32.103539 -110.292366 13,800 225 348 -2688
2021-09-20 21:35:48 GMT 32.107910 -110.287247 13,975 225 350 -2752
2021-09-20 21:35:41 GMT 32.117367 -110.276161 14,425 225 352 -3136
2021-09-20 21:35:37 GMT 32.120159 -110.272911 14,500 225 352 -3136
2021-09-20 21:35:33 GMT 32.130569 -110.260658 14,800 225 357 -2176
2021-09-20 21:35:30 GMT 32.130569 -110.260658 14,875 225 357 -2176
2021-09-20 21:35:27 GMT 32.132034 -110.258957 14,925 225 358 -2240
2021-09-20 21:35:21 GMT 32.140045 -110.249557 15,175 225 360 -2112
2021-09-20 21:35:19 GMT 32.143154 -110.245956 15,275 225 361 -2176
2021-09-20 21:35:16 GMT 32.144806 -110.244011 15,325 225 361 -2176
2021-09-20 21:35:11 GMT 32.151352 -110.236320 15,550 225 362 -2240
2021-09-20 21:35:09 GMT 32.154327 -110.232864 15,650 225 363 -2304
2021-09-20 21:35:06 GMT 32.157166 -110.229507 15,700 225 363 -2304
2021-09-20 21:34:59 GMT 32.166527 -110.218597 16,325 225 367 -2304
2021-09-20 21:34:56 GMT 32.169662 -110.214951 16,075 225 366 -2176
2021-09-20 21:34:50 GMT 32.176346 -110.207047 16,300 225 367 -2304
2021-09-20 21:34:48 GMT 32.179420 -110.203468 16,450 226 368 -2304
2021-09-20 21:34:45 GMT 32.182617 -110.199684 16,450 226 368 -2304
2021-09-20 21:34:40 GMT 32.188591 -110.192650 16,675 225 369 -2176
2021-09-20 21:34:38 GMT 32.192230 -110.188370 16,775 225 369 -2112
2021-09-20 21:34:35 GMT 32.195251 -110.184853 16,875 225 371 -2112
2021-09-20 21:34:29 GMT 32.201813 -110.177177 17,075 225 372 -2240
2021-09-20 21:34:27 GMT 32.205002 -110.173370 17,175 225 373 -2240
2021-09-20 21:34:24 GMT 32.208141 -110.169724 17,250 225 373 -2240
2021-09-20 21:34:17 GMT 32.217773 -110.158371 17,550 226 375 -2368
2021-09-20 21:34:14 GMT 32.220387 -110.155319 17,650 226 375 -2496
2021-09-20 21:34:06 GMT 32.233566 -110.139809 18,100 225 380 0
2021-09-20 21:34:03 GMT 32.233566 -110.139809 18,100 225 376 -2624
2021-09-20 21:34:00 GMT 32.238262 -110.134293 18,275 225 377 -2560
2021-09-20 21:33:56 GMT 32.244415 -110.127007 18,500 225 377 -2624
2021-09-20 21:33:52 GMT 32.247391 -110.123550 18,600 225 377 -2624
2021-09-20 21:33:49 GMT 32.251110 -110.119164 18,725 226 378 -2688
2021-09-20 21:33:47 GMT 32.259911 -110.108734 18,925 225 379 -2560
2021-09-20 21:33:43 GMT 32.259911 -110.108734 19,025 225 379 -2432
2021-09-20 21:33:38 GMT 32.265244 -110.102509 19,200 225 379 -2368
2021-09-20 21:33:35 GMT 32.270386 -110.096458 19,350 225 380 -2368
2021-09-20 21:33:32 GMT 32.273457 -110.092819 19,450 225 380 -2304
2021-09-20 21:33:27 GMT 32.278198 -110.087234 19,600 225 381 -2368
2021-09-20 21:33:24 GMT 32.283466 -110.081047 19,750 226 382 -2368
2021-09-20 21:33:21 GMT 32.286713 -110.077187 19,850 226 383 -2304
2021-09-20 21:33:13 GMT 32.296280 -110.065926 20,150 225 386 -2176
2021-09-20 21:33:10 GMT 32.300720 -110.060654 20,250 225 387 -1984
2021-09-20 21:33:07 GMT 32.304043 -110.056778 20,325 225 388 -1856
2021-09-20 21:33:03 GMT 32.310280 -110.049431 20,450 225 391 -1536
2021-09-20 21:33:00 GMT 32.314423 -110.044556 20,525 225 393 -1280
2021-09-20 21:32:53 GMT 32.320660 -110.037270 20,600 225 395 -1152
2021-09-20 21:32:51 GMT 32.323780 -110.033569 20,925 225 403 -896
2021-09-20 21:32:48 GMT 32.327923 -110.028694 20,700 225 404 -896
2021-09-20 21:32:42 GMT 32.338165 -110.016586 20,875 225 411 -1664
2021-09-20 21:32:39 GMT 32.342239 -110.011818 20,975 225 414 -2240
2021-09-20 21:32:33 GMT 32.349289 -110.003525 21,200 225 415 -2752
2021-09-20 21:32:28 GMT 32.356644 -109.994835 21,475 226 416 -2880
2021-09-20 21:32:21 GMT 32.366180 -109.983528 21,800 226 417 -2944
2021-09-20 21:32:17 GMT 32.371124 -109.977707 21,975 226 419 -2944
2021-09-20 21:32:12 GMT 32.377716 -109.969902 22,250 226 420 -3008
2021-09-20 21:32:09 GMT 32.381424 -109.965508 22,400 226 420 -3008
2021-09-20 21:32:06 GMT 32.385956 -109.960182 22,525 225 421 -3008
2021-09-20 21:32:00 GMT 32.395611 -109.948761 22,875 225 422 -3072
2021-09-20 21:31:56 GMT 32.400879 -109.942551 23,075 226 423 -3008
2021-09-20 21:31:51 GMT 32.406418 -109.935959 23,275 226 424 -3008
2021-09-20 21:31:49 GMT 32.409901 -109.931831 23,725 226 426 -3200
2021-09-20 21:31:46 GMT 32.412739 -109.928528 23,500 226 426 -3200
2021-09-20 21:31:43 GMT 32.417587 -109.922775 23,675 226 426 -3264
2021-09-20 21:31:40 GMT 32.423126 -109.916183 23,900 225 427 -3328
2021-09-20 21:31:36 GMT 32.426800 -109.911880 24,050 226 427 -3328
2021-09-20 21:31:32 GMT 32.432945 -109.904594 24,275 226 427 -3136
2021-09-20 21:31:30 GMT 32.437134 -109.899643 24,425 226 429 -3008
2021-09-20 21:31:26 GMT 32.441368 -109.894669 24,550 225 429 -2752
2021-09-20 21:31:22 GMT 32.446957 -109.888054 24,725 225 431 -2496
2021-09-20 21:31:19 GMT 32.452881 -109.881027 24,875 225 432 -1792
2021-09-20 21:31:15 GMT 32.456223 -109.877068 24,925 226 433 -1472
2021-09-20 21:31:12 GMT 32.461201 -109.871239 24,975 226 434 -576
2021-09-20 21:31:09 GMT 32.466881 -109.864517 25,000 226 436 -64
2021-09-20 21:31:05 GMT 32.471054 -109.859543 25,000 226 437 0
2021-09-20 21:31:02 GMT 32.475910 -109.853806 25,000 226 436 0
2021-09-20 21:30:57 GMT 32.483406 -109.844955 25,000 226 436 0
2021-09-20 21:30:54 GMT 32.486294 -109.841476 25,000 226 436 0
2021-09-20 21:30:48 GMT 32.496872 -109.828949 25,000 226 436 -64
2021-09-20 21:30:44 GMT 32.501312 -109.823677 25,000 226 436 0
2021-09-20 21:30:41 GMT 32.507034 -109.816864 25,000 226 435 0
2021-09-20 21:30:37 GMT 32.512547 -109.810371 25,000 226 435 0
2021-09-20 21:30:33 GMT 32.516144 -109.806046 25,000 226 435 0
2021-09-20 21:30:30 GMT 32.522507 -109.798515 25,000 226 435 0
2021-09-20 21:30:25 GMT 32.527863 -109.792152 25,000 226 435 0
2021-09-20 21:30:22 GMT 32.531616 -109.787697 25,000 226 435 -64
2021-09-20 21:30:19 GMT 32.536987 -109.781273 25,000 226 435 0
2021-09-20 21:30:16 GMT 32.542110 -109.775169 25,000 226 435 0
2021-09-20 21:30:12 GMT 32.546673 -109.769783 25,000 226 435 0
2021-09-20 21:30:08 GMT 32.552910 -109.762329 25,000 226 435 0
2021-09-20 21:30:05 GMT 32.557159 -109.757263 25,000 226 434 64
2021-09-20 21:30:01 GMT 32.561428 -109.752243 25,000 226 434 64
2021-09-20 21:29:58 GMT 32.567619 -109.744843 25,000 226 434 64
2021-09-20 21:29:55 GMT 32.572182 -109.739403 25,000 226 434 64
2021-09-20 21:29:51 GMT 32.576183 -109.734695 25,000 226 434 64
2021-09-20 21:29:47 GMT 32.583252 -109.726227 25,000 226 434 -256
2021-09-20 21:29:44 GMT 32.586941 -109.721863 25,025 226 435 -896
2021-09-20 21:29:41 GMT 32.590668 -109.717438 25,075 226 435 -1152
2021-09-20 21:29:36 GMT 32.598297 -109.708351 25,150 226 435 -896
2021-09-20 21:29:33 GMT 32.602615 -109.703209 25,200 226 436 -1024
2021-09-20 21:29:30 GMT 32.605652 -109.699608 25,250 226 436 -1024
2021-09-20 21:29:26 GMT 32.613148 -109.690697 25,325 226 438 -1024
2021-09-20 21:29:23 GMT 32.616760 -109.686401 25,375 226 438 -1024
2021-09-20 21:29:20 GMT 32.620926 -109.681458 25,425 226 439 -1024
2021-09-20 21:29:15 GMT 32.627838 -109.673218 25,500 226 439 -1024
2021-09-20 21:29:12 GMT 32.632965 -109.667068 25,575 226 439 -1024
2021-09-20 21:29:09 GMT 32.636147 -109.663284 25,600 226 439 -1024
2021-09-20 21:29:05 GMT 32.641823 -109.656502 25,675 226 437 -1024
2021-09-20 21:29:02 GMT 32.646652 -109.650696 25,725 226 432 -960
2021-09-20 21:28:59 GMT 32.650295 -109.646301 25,775 226 430 -960
2021-09-20 21:28:55 GMT 32.656723 -109.638664 25,825 226 426 -1024
2021-09-20 21:28:52 GMT 32.661469 -109.633018 25,900 226 423 -1088
2021-09-20 21:28:48 GMT 32.665752 -109.627914 25,950 226 424 -1088
2021-09-20 21:28:43 GMT 32.672546 -109.619843 26,000 226 425 -1024
2021-09-20 21:28:41 GMT 32.675900 -109.615868 26,075 226 430 -1024
2021-09-20 21:28:38 GMT 32.679977 -109.610977 26,100 226 432 -1088
2021-09-20 21:28:35 GMT 32.685745 -109.604057 26,175 226 440 -1024
2021-09-20 21:28:31 GMT 32.690735 -109.598129 26,250 226 439 -1024
2021-09-20 21:28:27 GMT 32.695732 -109.592155 26,300 226 439 -1024
2021-09-20 21:28:22 GMT 32.701458 -109.585320 26,375 226 440 -1024
2021-09-20 21:28:20 GMT 32.706066 -109.579826 26,425 226 440 -1024
2021-09-20 21:28:16 GMT 32.710373 -109.574669 26,550 226 440 -1024
2021-09-20 21:28:13 GMT 32.714951 -109.569176 26,550 226 440 -1024
2021-09-20 21:28:09 GMT 32.721569 -109.561272 26,625 226 440 -1024
2021-09-20 21:28:06 GMT 32.725845 -109.556160 26,675 226 440 -1024
2021-09-20 21:28:03 GMT 32.729324 -109.551987 26,700 226 440 -1024
2021-09-20 21:28:00 GMT 32.735641 -109.544456 26,775 226 441 -1024
2021-09-20 21:27:57 GMT 32.743820 -109.534645 26,850 226 441 -1024
2021-09-20 21:27:53 GMT 32.743820 -109.534645 26,875 226 441 -1024
2021-09-20 21:27:48 GMT 32.752853 -109.523804 26,975 226 441 -1024
2021-09-20 21:27:45 GMT 32.756882 -109.519028 27,025 226 441 -1024
2021-09-20 21:27:41 GMT 32.760487 -109.514687 27,075 226 441 -1024
2021-09-20 21:27:37 GMT 32.767513 -109.506279 27,150 226 441 -1024
2021-09-20 21:27:34 GMT 32.771851 -109.501060 27,200 226 442 -1024
2021-09-20 21:27:27 GMT 32.782837 -109.487991 27,325 226 442 -1024
2021-09-20 21:27:24 GMT 32.787113 -109.482849 27,375 226 443 -1024
2021-09-20 21:27:17 GMT 32.797852 -109.469971 27,500 226 444 -1024
2021-09-20 21:27:12 GMT 32.802979 -109.463821 27,575 226 444 -1024
2021-09-20 21:27:05 GMT 32.813740 -109.450905 27,700 226 444 -1024
2021-09-20 21:27:02 GMT 32.817184 -109.446754 27,725 226 444 -1024
2021-09-20 21:26:55 GMT 32.827660 -109.434258 27,850 226 445 -1024
2021-09-20 21:26:52 GMT 32.832596 -109.428329 27,925 226 446 -1024
2021-09-20 21:26:46 GMT 32.842743 -109.416206 28,025 226 446 -1024
2021-09-20 21:26:42 GMT 32.846840 -109.411270 28,075 226 446 -1024
2021-09-20 21:26:36 GMT 32.856709 -109.399391 28,200 226 447 -1024
2021-09-20 21:26:32 GMT 32.862259 -109.392738 28,250 226 448 -1024
2021-09-20 21:26:24 GMT 32.874165 -109.378426 28,400 226 448 -1024
2021-09-20 21:26:21 GMT 32.877705 -109.374168 28,425 226 449 -1024
2021-09-20 21:26:14 GMT 32.887939 -109.361862 28,550 226 449 -1088
2021-09-20 21:26:11 GMT 32.893204 -109.355545 28,625 226 451 -1088
2021-09-20 21:26:03 GMT 32.904282 -109.342201 28,750 226 451 -1024
2021-09-20 21:26:00 GMT 32.908447 -109.337204 28,800 226 451 -960
2021-09-20 21:25:53 GMT 32.918762 -109.324783 28,900 226 451 -1024
2021-09-20 21:25:49 GMT 32.923645 -109.318909 28,950 226 452 -1024
2021-09-20 21:25:43 GMT 32.934639 -109.305672 29,100 226 453 -1024
2021-09-20 21:25:40 GMT 32.939529 -109.299789 29,150 226 453 -1024
2021-09-20 21:25:31 GMT 32.950287 -109.286827 29,275 226 454 -1024
2021-09-20 21:25:28 GMT 32.954700 -109.281456 29,325 226 456 -1024
2021-09-20 21:25:19 GMT 32.969193 -109.263977 29,475 226 457 -1024
2021-09-20 21:25:11 GMT 32.980816 -109.250008 29,625 226 458 -1024
2021-09-20 21:25:08 GMT 32.985260 -109.244644 29,675 226 459 -1024
2021-09-20 21:25:00 GMT 32.998787 -109.228371 29,825 226 459 -1024
2021-09-20 21:24:57 GMT 33.001766 -109.224785 29,850 226 459 -1024
2021-09-20 21:24:50 GMT 33.012177 -109.212173 29,975 226 458 -1024
2021-09-20 21:24:47 GMT 33.016342 -109.207123 30,050 226 458 -1024
2021-09-20 21:24:40 GMT 33.027370 -109.193787 30,125 226 457 -960
2021-09-20 21:24:37 GMT 33.031513 -109.188797 30,175 226 456 -960
2021-09-20 21:24:27 GMT 33.047527 -109.169403 30,350 226 454 -1024
2021-09-20 21:24:19 GMT 33.059006 -109.155540 30,500 226 453 -1024
2021-09-20 21:24:16 GMT 33.062099 -109.151802 30,525 226 453 -1024
2021-09-20 21:24:08 GMT 33.074017 -109.137398 30,750 226 451 -960
2021-09-20 21:24:05 GMT 33.077507 -109.133194 30,700 226 451 -1024
2021-09-20 21:23:58 GMT 33.089237 -109.119011 30,850 226 451 -1024
2021-09-20 21:23:55 GMT 33.093334 -109.114021 30,875 226 451 -1024
2021-09-20 21:23:47 GMT 33.104927 -109.099953 31,025 226 449 -1024
2021-09-20 21:23:44 GMT 33.108215 -109.095993 31,050 226 449 -1024
2021-09-20 21:23:37 GMT 33.121033 -109.080452 31,200 226 449 -1024
2021-09-20 21:23:34 GMT 33.123825 -109.077042 31,225 226 449 -1024
2021-09-20 21:23:26 GMT 33.135323 -109.063126 31,425 226 448 -1024
2021-09-20 21:23:23 GMT 33.139236 -109.058365 31,400 226 448 -1024
2021-09-20 21:23:18 GMT 33.146667 -109.049416 31,500 226 448 -1024
2021-09-20 21:23:16 GMT 33.150696 -109.044472 31,550 226 448 -1024
2021-09-20 21:23:12 GMT 33.154503 -109.039864 31,575 226 448 -1024
2021-09-20 21:23:06 GMT 33.163513 -109.028923 31,675 226 449 -1024
2021-09-20 21:23:02 GMT 33.169586 -109.021538 31,750 226 449 -1024
2021-09-20 21:22:55 GMT 33.181225 -109.007416 31,875 226 449 -960
2021-09-20 21:22:52 GMT 33.184296 -109.003654 31,925 226 449 -960
2021-09-20 21:22:43 GMT 33.196609 -108.988716 32,000 226 447 -128
2021-09-20 21:22:41 GMT 33.200405 -108.984154 32,000 226 447 -64
2021-09-20 21:22:36 GMT 33.207340 -108.975685 32,000 226 447 0
2021-09-20 21:22:34 GMT 33.211716 -108.970367 32,000 226 448 0
2021-09-20 21:22:30 GMT 33.216045 -108.965096 32,000 226 448 0
2021-09-20 21:22:22 GMT 33.229111 -108.949219 32,000 226 449 0
2021-09-20 21:22:13 GMT 33.243073 -108.932243 32,000 226 449 64
2021-09-20 21:22:10 GMT 33.245865 -108.928841 32,000 226 449 0
2021-09-20 21:22:00 GMT 33.260513 -108.910988 32,000 226 449 0
2021-09-20 21:21:52 GMT 33.272980 -108.895813 32,000 226 449 -64
2021-09-20 21:21:48 GMT 33.276810 -108.891098 32,000 226 449 0
2021-09-20 21:21:44 GMT 33.282578 -108.884125 32,000 226 449 64
2021-09-20 21:21:41 GMT 33.291962 -108.872696 32,000 226 449 64
2021-09-20 21:21:38 GMT 33.291962 -108.872696 32,000 226 449 64
2021-09-20 21:21:31 GMT 33.304092 -108.857925 32,000 226 449 -64
2021-09-20 21:21:28 GMT 33.306774 -108.854668 32,000 226 449 -64
2021-09-20 21:21:20 GMT 33.317505 -108.841553 32,000 226 447 64
2021-09-20 21:21:17 GMT 33.321533 -108.836609 32,000 226 448 0
2021-09-20 21:21:09 GMT 33.334854 -108.820351 32,000 226 446 0
2021-09-20 21:21:05 GMT 33.340073 -108.813980 32,000 226 447 -64
2021-09-20 21:20:56 GMT 33.352798 -108.798431 32,000 226 446 0
2021-09-20 21:20:47 GMT 33.365524 -108.782883 32,000 226 446 -64
2021-09-20 21:20:37 GMT 33.380795 -108.764259 32,000 226 446 -64
2021-09-20 21:20:26 GMT 33.395599 -108.746140 32,000 226 446 -64
2021-09-20 21:20:17 GMT 33.410019 -108.728500 32,000 226 446 0
2021-09-20 21:20:06 GMT 33.425297 -108.709770 32,000 226 446 -64
2021-09-20 21:19:56 GMT 33.440243 -108.691444 32,000 226 445 0
2021-09-20 21:19:45 GMT 33.455185 -108.673172 32,000 226 444 64
2021-09-20 21:19:34 GMT 33.470592 -108.654228 32,000 226 443 0
2021-09-20 21:19:25 GMT 33.484978 -108.636627 32,000 226 441 64
2021-09-20 21:19:14 GMT 33.499828 -108.618355 32,000 226 439 64
2021-09-20 21:19:04 GMT 33.515350 -108.599251 32,000 226 435 0
2021-09-20 21:18:52 GMT 33.529621 -108.581696 32,000 226 432 -64
2021-09-20 21:18:42 GMT 33.543823 -108.564316 32,000 226 428 0
2021-09-20 21:18:32 GMT 33.558437 -108.546295 32,000 226 425 64
2021-09-20 21:18:22 GMT 33.572403 -108.529877 32,000 223 422 -64
2021-09-20 21:18:16 GMT 33.581543 -108.520317 32,000 219 421 -128
2021-09-20 21:18:12 GMT 33.588558 -108.513618 32,000 218 420 -256
2021-09-20 21:18:01 GMT 33.604385 -108.500175 32,125 213 416 -960
2021-09-20 21:17:57 GMT 33.613129 -108.493690 32,225 211 413 -1024
2021-09-20 21:17:51 GMT 33.622375 -108.487465 32,300 208 414 -960
2021-09-20 21:17:45 GMT 33.630753 -108.482368 32,375 207 414 -1024
2021-09-20 21:17:40 GMT 33.639950 -108.476944 32,475 207 415 -1024
2021-09-20 21:17:34 GMT 33.649384 -108.471436 32,575 207 415 -960
2021-09-20 21:17:29 GMT 33.657623 -108.466614 32,650 207 415 -1024
2021-09-20 21:17:24 GMT 33.668392 -108.460350 32,750 207 416 -1024
2021-09-20 21:17:20 GMT 33.676254 -108.455742 32,825 207 416 -1024
2021-09-20 21:17:12 GMT 33.687618 -108.449081 32,925 207 416 -1024
2021-09-20 21:17:08 GMT 33.694695 -108.444962 33,000 207 417 -1024
2021-09-20 21:17:04 GMT 33.703308 -108.439934 33,100 207 417 -960
2021-09-20 21:16:59 GMT 33.711361 -108.435173 33,175 207 417 -1024
2021-09-20 21:16:53 GMT 33.722717 -108.428558 33,275 207 417 -1024
2021-09-20 21:16:48 GMT 33.729424 -108.424644 33,325 207 417 -1024
2021-09-20 21:16:42 GMT 33.740456 -108.418182 33,450 207 417 -960
2021-09-20 21:16:36 GMT 33.750233 -108.412460 33,525 207 417 -1024
2021-09-20 21:16:32 GMT 33.758926 -108.407372 33,625 206 418 -960
2021-09-20 21:16:28 GMT 33.765884 -108.403336 33,675 207 418 -1088
2021-09-20 21:16:20 GMT 33.777279 -108.396667 33,800 207 418 -1024
2021-09-20 21:16:16 GMT 33.784218 -108.392601 33,850 207 419 -960
2021-09-20 21:16:11 GMT 33.796227 -108.385567 33,975 207 418 -832
2021-09-20 21:16:07 GMT 33.802002 -108.382149 34,000 207 417 -192
2021-09-20 21:16:00 GMT 33.814636 -108.374748 34,000 207 417 64
2021-09-20 21:15:55 GMT 33.821548 -108.370712 34,000 207 417 64
2021-09-20 21:15:49 GMT 33.833702 -108.363586 34,000 207 417 0
2021-09-20 21:15:46 GMT 33.838898 -108.360512 34,000 207 417 0
2021-09-20 21:15:38 GMT 33.850971 -108.353462 34,000 207 418 -64
2021-09-20 21:15:35 GMT 33.856979 -108.349915 34,000 207 418 -64
2021-09-20 21:15:28 GMT 33.874760 -108.339500 34,000 207 419 64
2021-09-20 21:15:24 GMT 33.874760 -108.339500 34,000 207 419 0
2021-09-20 21:15:14 GMT 33.893661 -108.328400 34,000 207 420 -64
2021-09-20 21:15:03 GMT 33.911499 -108.317909 34,000 207 420 64
2021-09-20 21:14:54 GMT 33.929672 -108.307205 34,000 207 420 -64
2021-09-20 21:14:42 GMT 33.948578 -108.296104 34,000 207 420 -64
2021-09-20 21:14:33 GMT 33.965721 -108.286057 34,000 207 420 -64
2021-09-20 21:14:22 GMT 33.983879 -108.275352 34,000 207 419 64
2021-09-20 21:14:11 GMT 34.002033 -108.264656 34,000 207 419 0
2021-09-20 21:14:02 GMT 34.020794 -108.253555 34,000 207 417 0
2021-09-20 21:13:50 GMT 34.039215 -108.242744 34,000 207 417 -64
2021-09-20 21:13:41 GMT 34.056427 -108.232597 34,000 207 416 0
2021-09-20 21:13:30 GMT 34.074188 -108.222084 34,000 207 415 0
2021-09-20 21:13:19 GMT 34.092812 -108.211098 34,000 207 414 64
2021-09-20 21:13:09 GMT 34.110397 -108.200760 34,000 207 414 -64
2021-09-20 21:12:59 GMT 34.128250 -108.190163 34,000 207 412 64
2021-09-20 21:12:49 GMT 34.146439 -108.179398 34,000 207 412 64
2021-09-20 21:12:42 GMT 34.158371 -108.172340 34,000 207 411 -64
2021-09-20 21:12:37 GMT 34.164921 -108.168465 34,000 207 412 0
2021-09-20 21:12:27 GMT 34.182266 -108.158211 34,000 207 412 -64
2021-09-20 21:12:17 GMT 34.200760 -108.147285 34,000 207 411 0
2021-09-20 21:12:06 GMT 34.217525 -108.137344 34,000 207 411 0
2021-09-20 21:12:00 GMT 34.228180 -108.131027 34,000 207 411 64
2021-09-20 21:11:57 GMT 34.243149 -108.122116 34,000 207 411 0
2021-09-20 21:11:44 GMT 34.255230 -108.114967 34,000 207 412 0
2021-09-20 21:11:35 GMT 34.273407 -108.104179 34,000 207 413 0
2021-09-20 21:11:24 GMT 34.302979 -108.086578 34,000 207 414 0
2021-09-20 21:11:18 GMT 34.302979 -108.086578 34,000 207 414 64
2021-09-20 21:11:14 GMT 34.309559 -108.082695 34,000 207 415 -64
2021-09-20 21:11:05 GMT 34.324688 -108.073708 34,000 207 415 0
2021-09-20 21:11:00 GMT 34.332047 -108.069313 34,000 207 415 64
2021-09-20 21:10:53 GMT 34.342751 -108.062958 34,000 207 415 0
2021-09-20 21:10:43 GMT 34.362675 -108.051109 34,000 207 415 -64
2021-09-20 21:10:40 GMT 34.366959 -108.048592 34,000 207 415 0
2021-09-20 21:10:33 GMT 34.378876 -108.041512 34,000 207 415 64
2021-09-20 21:10:27 GMT 34.387672 -108.036232 34,000 207 415 0
2021-09-20 21:10:21 GMT 34.400799 -108.028450 34,000 207 415 0
2021-09-20 21:10:10 GMT 34.418381 -108.017967 34,000 207 415 -64
2021-09-20 21:10:00 GMT 34.437698 -108.006477 34,000 207 415 0
2021-09-20 21:09:51 GMT 34.451981 -107.997963 34,000 207 414 64
2021-09-20 21:09:48 GMT 34.456192 -107.995438 34,000 207 414 64
2021-09-20 21:09:38 GMT 34.473701 -107.985023 34,000 207 414 -64
2021-09-20 21:09:31 GMT 34.486176 -107.977524 34,000 207 414 0
2021-09-20 21:09:27 GMT 34.494232 -107.972717 34,000 207 414 0
2021-09-20 21:09:20 GMT 34.504749 -107.966423 34,000 207 412 0
2021-09-20 21:09:17 GMT 34.509499 -107.963615 34,000 207 412 64
2021-09-20 21:09:10 GMT 34.522888 -107.955643 34,000 207 412 0
2021-09-20 21:09:07 GMT 34.527695 -107.952728 34,000 207 412 0
2021-09-20 21:08:59 GMT 34.539963 -107.945435 34,000 207 411 0
2021-09-20 21:08:55 GMT 34.545856 -107.941933 34,000 207 411 0
2021-09-20 21:08:46 GMT 34.563217 -107.931534 34,000 207 411 -64
2021-09-20 21:08:39 GMT 34.575836 -107.923965 34,000 207 412 0
2021-09-20 21:08:35 GMT 34.582771 -107.919785 34,000 207 412 0
2021-09-20 21:08:27 GMT 34.594410 -107.912804 34,000 207 412 0
2021-09-20 21:08:23 GMT 34.600601 -107.909142 34,000 207 411 -64
2021-09-20 21:08:18 GMT 34.611053 -107.902893 34,000 207 411 64
2021-09-20 21:08:14 GMT 34.618244 -107.898560 34,000 207 410 64
2021-09-20 21:08:07 GMT 34.629280 -107.891922 34,000 207 410 0
2021-09-20 21:08:03 GMT 34.637787 -107.886864 34,000 207 410 0
2021-09-20 21:07:57 GMT 34.646530 -107.881592 34,000 207 409 0
2021-09-20 21:07:52 GMT 34.656513 -107.875610 34,000 207 409 0
2021-09-20 21:07:46 GMT 34.665024 -107.870552 34,000 207 409 0
2021-09-20 21:07:41 GMT 34.677246 -107.863213 34,000 207 410 0
2021-09-20 21:07:35 GMT 34.682346 -107.860107 34,000 207 410 0
2021-09-20 21:07:29 GMT 34.692589 -107.853989 34,000 207 410 0
2021-09-20 21:07:26 GMT 34.700409 -107.849304 34,000 207 410 -64
2021-09-20 21:07:20 GMT 34.710617 -107.843140 34,000 207 410 64
2021-09-20 21:07:14 GMT 34.718033 -107.838715 34,000 207 411 0
2021-09-20 21:07:09 GMT 34.728714 -107.832298 34,000 207 411 -64
2021-09-20 21:07:05 GMT 34.736256 -107.827782 34,000 207 411 0
2021-09-20 21:06:59 GMT 34.754688 -107.816673 34,000 207 411 0
2021-09-20 21:06:54 GMT 34.754688 -107.816673 34,000 207 412 -64
2021-09-20 21:06:49 GMT 34.762932 -107.811752 34,000 207 411 0
2021-09-20 21:06:43 GMT 34.772285 -107.806091 34,000 207 412 0
2021-09-20 21:06:37 GMT 34.781273 -107.800713 34,000 207 411 0
2021-09-20 21:06:32 GMT 34.790497 -107.795158 34,000 207 411 0
2021-09-20 21:06:28 GMT 34.799801 -107.789558 34,000 207 410 0
2021-09-20 21:06:25 GMT 34.803200 -107.787498 34,000 207 410 0
2021-09-20 21:06:22 GMT 34.808212 -107.784508 34,000 207 410 0
2021-09-20 21:06:17 GMT 34.817184 -107.779076 34,000 207 410 0
2021-09-20 21:06:12 GMT 34.825588 -107.774048 34,000 207 409 0
2021-09-20 21:06:06 GMT 34.835178 -107.768211 34,000 207 409 -64
2021-09-20 21:06:01 GMT 34.844376 -107.762711 34,000 207 409 0
2021-09-20 21:05:56 GMT 34.853760 -107.757042 34,000 207 408 0
2021-09-20 21:05:51 GMT 34.860970 -107.752708 34,000 207 408 0
2021-09-20 21:05:44 GMT 34.871521 -107.746338 34,000 207 408 -64
2021-09-20 21:05:41 GMT 34.878296 -107.742249 34,000 207 408 64
2021-09-20 21:05:35 GMT 34.889099 -107.735687 34,000 207 408 0
2021-09-20 21:05:30 GMT 34.894859 -107.732224 34,000 207 408 -64
2021-09-20 21:05:23 GMT 34.906963 -107.724953 34,000 207 408 -64
2021-09-20 21:05:19 GMT 34.913757 -107.720833 34,000 207 408 0
2021-09-20 21:05:14 GMT 34.924561 -107.714310 34,000 207 408 64
2021-09-20 21:05:09 GMT 34.932800 -107.709335 34,000 207 407 0
2021-09-20 21:05:02 GMT 34.942902 -107.703262 34,000 207 407 0
2021-09-20 21:04:59 GMT 34.949890 -107.699028 34,000 207 407 64
2021-09-20 21:04:52 GMT 34.960831 -107.692413 34,000 207 407 0
2021-09-20 21:04:47 GMT 34.969528 -107.687149 34,000 207 407 64
2021-09-20 21:04:42 GMT 34.978745 -107.681580 34,000 207 407 -64
2021-09-20 21:04:37 GMT 34.987152 -107.676437 34,000 207 407 0
2021-09-20 21:04:30 GMT 34.996296 -107.670937 34,000 207 407 -64
2021-09-20 21:04:26 GMT 35.005234 -107.665512 34,000 207 406 0
2021-09-20 21:04:21 GMT 35.014160 -107.660133 34,000 207 406 64
2021-09-20 21:04:15 GMT 35.023251 -107.654633 34,000 207 406 0
2021-09-20 21:04:10 GMT 35.032562 -107.648964 34,000 207 406 0
2021-09-20 21:04:03 GMT 35.042149 -107.643188 34,000 207 407 0
2021-09-20 21:03:59 GMT 35.049599 -107.638664 34,000 207 407 -64
2021-09-20 21:03:53 GMT 35.061996 -107.631210 34,000 207 407 -64
2021-09-20 21:03:49 GMT 35.068817 -107.627060 34,000 207 407 -64
2021-09-20 21:03:42 GMT 35.079575 -107.620499 34,000 207 406 0
2021-09-20 21:03:38 GMT 35.086700 -107.616180 34,000 207 406 64
2021-09-20 21:03:31 GMT 35.098480 -107.609009 34,000 207 406 -64
2021-09-20 21:03:27 GMT 35.103790 -107.605812 34,000 207 406 0
2021-09-20 21:03:17 GMT 35.121799 -107.594894 34,000 207 406 0
2021-09-20 21:03:09 GMT 35.134140 -107.587372 34,000 207 406 -64
2021-09-20 21:03:05 GMT 35.140656 -107.583389 34,000 207 406 0
2021-09-20 21:02:56 GMT 35.157852 -107.572968 34,000 207 406 64
2021-09-20 21:02:45 GMT 35.175663 -107.562103 34,000 207 406 0
2021-09-20 21:02:37 GMT 35.189346 -107.553795 34,000 207 406 -64
2021-09-20 21:02:33 GMT 35.193512 -107.551277 34,000 207 406 -64
2021-09-20 21:02:24 GMT 35.211685 -107.540176 34,000 207 406 64
2021-09-20 21:02:13 GMT 35.228870 -107.529716 34,000 207 406 64
2021-09-20 21:02:03 GMT 35.246376 -107.519043 34,000 207 406 0
2021-09-20 21:01:51 GMT 35.264626 -107.507942 34,000 207 408 0
2021-09-20 21:01:42 GMT 35.282501 -107.497047 34,000 207 409 -64
2021-09-20 21:01:31 GMT 35.300468 -107.486084 34,000 207 408 64
2021-09-20 21:01:19 GMT 35.319077 -107.474731 34,000 207 406 64
2021-09-20 21:01:10 GMT 35.336426 -107.464088 34,000 207 406 0
2021-09-20 21:00:59 GMT 35.354691 -107.452927 34,000 207 405 -64
2021-09-20 21:00:48 GMT 35.372726 -107.441879 34,000 207 403 64
2021-09-20 21:00:36 GMT 35.391151 -107.430626 34,000 207 404 0
2021-09-20 21:00:27 GMT 35.407959 -107.420341 34,000 207 405 0
2021-09-20 21:00:16 GMT 35.426765 -107.408829 34,000 207 406 0
2021-09-20 21:00:05 GMT 35.444828 -107.397789 34,000 207 406 0
2021-09-20 20:59:54 GMT 35.462631 -107.386894 34,000 207 407 0
2021-09-20 20:59:43 GMT 35.481136 -107.375519 34,000 207 407 0
2021-09-20 20:59:32 GMT 35.499481 -107.364243 34,000 207 406 0
2021-09-20 20:59:22 GMT 35.517792 -107.353020 34,000 207 405 64
2021-09-20 20:59:11 GMT 35.535698 -107.342033 34,000 207 405 0
2021-09-20 20:59:00 GMT 35.554092 -107.330704 34,000 207 403 0
2021-09-20 20:58:52 GMT 35.567863 -107.322281 34,000 207 403 64
2021-09-20 20:58:49 GMT 35.571533 -107.320007 34,000 207 403 0
2021-09-20 20:58:41 GMT 35.584900 -107.311768 34,000 207 404 0
2021-09-20 20:58:38 GMT 35.589931 -107.308670 34,000 207 404 0
2021-09-20 20:58:31 GMT 35.602638 -107.300835 34,000 207 404 -64
2021-09-20 20:58:27 GMT 35.608505 -107.297272 34,000 207 404 0
2021-09-20 20:58:20 GMT 35.620003 -107.290146 34,000 207 404 0
2021-09-20 20:58:17 GMT 35.626705 -107.286049 34,000 207 403 0
2021-09-20 20:58:10 GMT 35.638065 -107.279037 34,000 207 404 0
2021-09-20 20:58:06 GMT 35.644722 -107.274948 34,000 207 404 0
2021-09-20 20:57:59 GMT 35.655121 -107.268562 34,000 207 404 -64
2021-09-20 20:57:55 GMT 35.663132 -107.263580 34,000 207 404 64
2021-09-20 20:57:49 GMT 35.673157 -107.257401 34,000 207 404 0
2021-09-20 20:57:44 GMT 35.680195 -107.253090 34,000 207 404 64
2021-09-20 20:57:38 GMT 35.690903 -107.246490 34,000 207 404 0
2021-09-20 20:57:32 GMT 35.698910 -107.241524 34,000 207 404 0
2021-09-20 20:57:27 GMT 35.708588 -107.235542 34,000 207 403 0
2021-09-20 20:57:22 GMT 35.716740 -107.230476 34,000 207 402 -64
2021-09-20 20:57:17 GMT 35.725800 -107.224899 34,000 207 402 0
2021-09-20 20:57:12 GMT 35.734894 -107.219315 34,000 207 402 0
2021-09-20 20:57:06 GMT 35.743412 -107.213997 34,000 207 402 0
2021-09-20 20:57:01 GMT 35.753174 -107.207970 34,000 207 402 0
2021-09-20 20:56:56 GMT 35.761475 -107.202835 34,000 207 401 0
2021-09-20 20:56:44 GMT 35.778748 -107.192200 34,000 207 401 -64
2021-09-20 20:56:35 GMT 35.796295 -107.181297 34,000 207 401 0
2021-09-20 20:56:24 GMT 35.814011 -107.170372 34,000 207 400 0
2021-09-20 20:56:12 GMT 35.831676 -107.159416 34,000 207 399 0
2021-09-20 20:56:06 GMT 35.841454 -107.153343 34,000 207 399 0
2021-09-20 20:56:03 GMT 35.849506 -107.148376 34,000 207 398 0
2021-09-20 20:55:57 GMT 35.859009 -107.142448 34,000 207 398 0
2021-09-20 20:55:52 GMT 35.866333 -107.137924 34,000 207 398 64
2021-09-20 20:55:46 GMT 35.877502 -107.130943 34,000 207 397 64
2021-09-20 20:55:41 GMT 35.883766 -107.127098 34,000 207 398 0
2021-09-20 20:55:34 GMT 35.894577 -107.120361 34,000 207 397 0
2021-09-20 20:55:31 GMT 35.901810 -107.115845 34,000 207 398 -64
2021-09-20 20:55:23 GMT 35.912201 -107.109428 34,000 207 398 0
2021-09-20 20:55:19 GMT 35.919617 -107.104858 34,000 207 398 0
2021-09-20 20:55:14 GMT 35.929157 -107.098877 34,000 207 398 -64
2021-09-20 20:55:09 GMT 35.936420 -107.094376 34,000 207 399 0
2021-09-20 20:55:03 GMT 35.946671 -107.088036 34,000 207 399 64
2021-09-20 20:54:59 GMT 35.954201 -107.083328 34,000 207 401 -64
2021-09-20 20:54:53 GMT 35.964523 -107.076935 34,000 207 401 0
2021-09-20 20:54:48 GMT 35.971474 -107.072578 34,000 207 401 64
2021-09-20 20:54:38 GMT 35.988605 -107.061943 34,000 207 401 0
2021-09-20 20:54:26 GMT 36.006618 -107.050720 34,000 207 401 0
2021-09-20 20:54:17 GMT 36.023239 -107.040382 34,000 207 402 -64
2021-09-20 20:54:05 GMT 36.041473 -107.029037 34,000 207 402 0
2021-09-20 20:54:00 GMT 36.052002 -107.022453 34,000 207 402 64
2021-09-20 20:53:56 GMT 36.059086 -107.018059 34,000 207 403 64
2021-09-20 20:53:49 GMT 36.069790 -107.011391 34,000 207 403 128
2021-09-20 20:53:44 GMT 36.076447 -107.007248 34,000 207 403 -64
2021-09-20 20:53:38 GMT 36.087433 -107.000427 34,000 207 402 -64
2021-09-20 20:53:35 GMT 36.094070 -106.996246 34,000 207 402 0
2021-09-20 20:53:27 GMT 36.104691 -106.989616 34,000 207 401 0
2021-09-20 20:53:22 GMT 36.114250 -106.983635 34,000 208 400 0
2021-09-20 20:53:17 GMT 36.122253 -106.978668 34,000 207 400 64
2021-09-20 20:53:13 GMT 36.129517 -106.974113 34,000 207 399 64
2021-09-20 20:53:07 GMT 36.139435 -106.967918 34,000 207 399 -64
2021-09-20 20:53:03 GMT 36.146851 -106.963287 34,000 207 398 64
2021-09-20 20:52:56 GMT 36.156921 -106.956940 34,000 207 398 64
2021-09-20 20:52:51 GMT 36.164154 -106.952415 34,000 207 399 -64
2021-09-20 20:52:46 GMT 36.174042 -106.946236 34,000 207 399 -64
2021-09-20 20:52:42 GMT 36.181610 -106.941505 34,000 207 400 64
2021-09-20 20:52:35 GMT 36.191433 -106.935364 34,000 207 400 64
2021-09-20 20:52:31 GMT 36.199486 -106.930344 34,000 207 401 -64
2021-09-20 20:52:25 GMT 36.209106 -106.924377 34,000 207 401 -64
2021-09-20 20:52:20 GMT 36.219364 -106.917892 34,000 207 401 64
2021-09-20 20:52:14 GMT 36.226021 -106.913742 34,000 207 401 -64
2021-09-20 20:52:08 GMT 36.237797 -106.906326 34,000 207 401 -64
2021-09-20 20:52:04 GMT 36.243484 -106.902809 34,000 208 400 64
2021-09-20 20:51:57 GMT 36.256371 -106.894691 34,000 207 400 -64
2021-09-20 20:51:53 GMT 36.260937 -106.891830 34,000 207 400 -128
2021-09-20 20:51:43 GMT 36.278904 -106.880608 34,000 207 399 -64
2021-09-20 20:51:35 GMT 36.292637 -106.871964 34,000 207 400 0
2021-09-20 20:51:31 GMT 36.296356 -106.869621 34,000 208 399 0
2021-09-20 20:51:22 GMT 36.314026 -106.858521 34,000 207 399 64
2021-09-20 20:51:10 GMT 36.330948 -106.847885 34,000 207 398 64
2021-09-20 20:51:01 GMT 36.347382 -106.837540 34,000 208 396 -64
2021-09-20 20:50:50 GMT 36.364326 -106.826843 34,000 207 394 64
2021-09-20 20:50:40 GMT 36.382233 -106.815605 34,000 208 394 0
2021-09-20 20:50:29 GMT 36.398682 -106.805283 34,000 207 392 0
2021-09-20 20:50:19 GMT 36.416473 -106.794029 34,000 208 391 0
2021-09-20 20:50:10 GMT 36.430756 -106.785049 34,000 208 390 0
2021-09-20 20:50:07 GMT 36.433365 -106.783386 34,000 208 390 0
2021-09-20 20:49:58 GMT 36.449478 -106.773262 34,000 207 390 -64
2021-09-20 20:49:47 GMT 36.466511 -106.762505 34,000 208 389 -64
2021-09-20 20:49:37 GMT 36.483871 -106.751518 34,000 208 389 64
2021-09-20 20:49:25 GMT 36.500538 -106.741005 34,000 208 389 -64
2021-09-20 20:49:16 GMT 36.517250 -106.730423 34,000 208 389 -64
2021-09-20 20:49:04 GMT 36.534348 -106.719643 34,000 208 390 0
2021-09-20 20:48:54 GMT 36.551102 -106.709000 34,000 208 391 64
2021-09-20 20:48:43 GMT 36.568272 -106.698227 34,000 207 392 -64
2021-09-20 20:48:33 GMT 36.585342 -106.687370 34,000 208 393 128
2021-09-20 20:48:22 GMT 36.602737 -106.676392 34,000 208 391 -64
2021-09-20 20:48:11 GMT 36.619946 -106.665497 34,000 208 390 -64
2021-09-20 20:48:02 GMT 36.636005 -106.655273 34,000 208 389 64
2021-09-20 20:47:51 GMT 36.653324 -106.644287 34,000 208 390 -128
2021-09-20 20:47:41 GMT 36.669800 -106.633873 34,000 208 389 64
2021-09-20 20:47:30 GMT 36.686794 -106.623077 34,000 208 388 -64
2021-09-20 20:47:20 GMT 36.704063 -106.612091 34,000 208 387 64
2021-09-20 20:47:09 GMT 36.720383 -106.601715 34,000 208 387 -64
2021-09-20 20:46:58 GMT 36.738922 -106.589928 34,000 208 387 64
2021-09-20 20:46:48 GMT 36.753967 -106.580353 34,000 208 387 0
2021-09-20 20:46:38 GMT 36.771194 -106.569366 34,000 208 386 64
2021-09-20 20:46:26 GMT 36.789230 -106.557884 34,000 208 386 0
2021-09-20 20:46:16 GMT 36.805504 -106.547516 34,000 208 386 -64
2021-09-20 20:46:06 GMT 36.820770 -106.537758 34,000 208 387 -64
2021-09-20 20:45:56 GMT 36.838089 -106.526772 34,000 208 386 64
2021-09-20 20:45:44 GMT 36.855312 -106.515793 34,000 208 387 -64
2021-09-20 20:45:34 GMT 36.872540 -106.504745 34,000 208 387 -64
2021-09-20 20:45:23 GMT 36.888504 -106.494598 34,000 208 387 64
2021-09-20 20:45:14 GMT 36.905125 -106.483971 34,000 208 387 -64
2021-09-20 20:45:02 GMT 36.921696 -106.473343 34,000 208 386 -64
2021-09-20 20:44:52 GMT 36.939434 -106.461998 34,000 208 386 64
2021-09-20 20:44:41 GMT 36.955494 -106.451729 34,000 208 387 64
2021-09-20 20:44:32 GMT 36.972382 -106.440926 34,000 208 388 0
2021-09-20 20:44:20 GMT 36.989990 -106.429634 34,000 208 389 -64
2021-09-20 20:44:10 GMT 37.005569 -106.419655 34,000 208 389 64
2021-09-20 20:43:59 GMT 37.022964 -106.408493 34,000 208 389 -64
2021-09-20 20:43:49 GMT 37.039288 -106.398048 34,000 208 389 -128
2021-09-20 20:43:39 GMT 37.055908 -106.387360 34,000 208 389 0
2021-09-20 20:43:28 GMT 37.073177 -106.376312 34,000 208 388 0
2021-09-20 20:43:18 GMT 37.089798 -106.365631 34,000 208 386 64
2021-09-20 20:43:07 GMT 37.106789 -106.354645 34,000 208 385 64
2021-09-20 20:42:57 GMT 37.123169 -106.344147 34,000 208 385 64
2021-09-20 20:42:46 GMT 37.139603 -106.333572 34,000 208 385 0
2021-09-20 20:42:35 GMT 37.158005 -106.321709 34,000 208 385 0
2021-09-20 20:42:24 GMT 37.173546 -106.311714 34,000 208 385 0
2021-09-20 20:42:15 GMT 37.189884 -106.301201 34,000 208 385 0
2021-09-20 20:42:04 GMT 37.206161 -106.290680 34,000 208 385 0
2021-09-20 20:41:58 GMT 37.217468 -106.283432 34,000 208 383 64
2021-09-20 20:41:54 GMT 37.223236 -106.279694 34,000 208 383 0
2021-09-20 20:41:47 GMT 37.233948 -106.272797 34,000 208 382 -64
2021-09-20 20:41:43 GMT 37.239487 -106.269173 34,000 208 382 64
2021-09-20 20:41:33 GMT 37.255920 -106.258598 34,000 208 381 0
2021-09-20 20:41:21 GMT 37.273167 -106.247467 34,000 208 380 -64
2021-09-20 20:41:12 GMT 37.289108 -106.237152 34,000 208 380 0
2021-09-20 20:41:04 GMT 37.301144 -106.229378 34,000 208 379 0
2021-09-20 20:40:59 GMT 37.307522 -106.225197 34,000 208 379 -64
2021-09-20 20:40:54 GMT 37.317390 -106.218864 34,000 208 379 -64
2021-09-20 20:40:51 GMT 37.321564 -106.216171 34,000 208 379 64
2021-09-20 20:40:43 GMT 37.333237 -106.208572 34,000 208 378 64
2021-09-20 20:40:39 GMT 37.338711 -106.205009 34,000 208 378 64
2021-09-20 20:40:33 GMT 37.350174 -106.197586 34,000 208 377 64
2021-09-20 20:40:30 GMT 37.354523 -106.194786 34,000 208 377 128
2021-09-20 20:40:22 GMT 37.366196 -106.187187 34,000 208 377 64
2021-09-20 20:40:16 GMT 37.375954 -106.180893 34,000 208 377 64
2021-09-20 20:40:12 GMT 37.382706 -106.176529 34,000 208 378 0
2021-09-20 20:40:08 GMT 37.387344 -106.173508 34,000 208 378 -64
2021-09-20 20:39:58 GMT 37.403885 -106.162743 34,000 208 378 64
2021-09-20 20:39:50 GMT 37.416641 -106.154465 34,000 208 378 0
2021-09-20 20:39:45 GMT 37.422226 -106.150841 34,000 208 378 0
2021-09-20 20:39:40 GMT 37.431564 -106.144760 34,000 208 379 0
2021-09-20 20:39:29 GMT 37.448410 -106.133835 34,000 208 381 0
2021-09-20 20:39:18 GMT 37.466358 -106.122200 34,000 208 383 -64
2021-09-20 20:39:15 GMT 37.471161 -106.119102 34,000 208 384 -64
2021-09-20 20:39:08 GMT 37.482185 -106.111931 34,000 208 382 64
2021-09-20 20:38:56 GMT 37.499496 -106.100700 34,000 208 381 0
2021-09-20 20:38:52 GMT 37.505676 -106.096664 34,000 208 381 64
2021-09-20 20:38:47 GMT 37.515423 -106.090256 34,000 208 381 -64
2021-09-20 20:38:43 GMT 37.521378 -106.086380 34,000 208 380 -64
2021-09-20 20:38:36 GMT 37.532322 -106.079269 34,000 208 379 64
2021-09-20 20:38:33 GMT 37.535110 -106.077438 34,000 208 379 64
2021-09-20 20:38:24 GMT 37.550385 -106.067505 34,000 208 378 64
2021-09-20 20:38:20 GMT 37.557182 -106.063026 34,000 208 378 64
2021-09-20 20:38:15 GMT 37.565598 -106.057571 34,000 208 378 64
2021-09-20 20:38:11 GMT 37.569305 -106.055176 34,000 208 378 -64
2021-09-20 20:38:02 GMT 37.585159 -106.044815 34,000 208 379 64
2021-09-20 20:37:51 GMT 37.601028 -106.034485 34,000 208 381 -64
2021-09-20 20:37:42 GMT 37.615700 -106.024933 34,000 208 381 64
2021-09-20 20:37:39 GMT 37.619560 -106.022362 34,000 208 381 64
2021-09-20 20:37:32 GMT 37.632736 -106.013763 34,000 208 381 64
2021-09-20 20:37:21 GMT 37.649323 -106.002930 34,000 208 380 0
2021-09-20 20:37:10 GMT 37.665787 -105.992149 34,000 208 379 64
2021-09-20 20:37:00 GMT 37.690567 -105.975990 34,000 208 379 -64
2021-09-20 20:36:50 GMT 37.698029 -105.971085 34,000 208 378 64
2021-09-20 20:36:47 GMT 37.702053 -105.968452 34,000 208 378 -64
2021-09-20 20:36:43 GMT 37.707184 -105.965065 34,000 208 378 64
2021-09-20 20:36:39 GMT 37.714828 -105.960098 34,000 208 378 64
2021-09-20 20:36:35 GMT 37.720917 -105.956062 34,000 208 378 64
2021-09-20 20:36:32 GMT 37.727234 -105.951912 34,000 208 377 -64
2021-09-20 20:36:28 GMT 37.730942 -105.949463 34,000 208 378 0
2021-09-20 20:36:23 GMT 37.739639 -105.943794 34,000 208 378 0
2021-09-20 20:36:18 GMT 37.748047 -105.938293 34,000 208 378 64
2021-09-20 20:36:12 GMT 37.756439 -105.932808 34,000 208 378 64
2021-09-20 20:36:07 GMT 37.763596 -105.928085 34,000 208 379 64
2021-09-20 20:36:03 GMT 37.770344 -105.923668 33,975 208 381 64
2021-09-20 20:35:59 GMT 37.776115 -105.919907 33,975 208 381 64
2021-09-20 20:35:54 GMT 37.785519 -105.913757 34,000 208 384 -192
2021-09-20 20:35:51 GMT 37.790268 -105.910599 34,000 208 385 -256
2021-09-20 20:35:45 GMT 37.797440 -105.905937 34,025 208 385 -128
2021-09-20 20:35:40 GMT 37.807030 -105.899605 34,000 208 383 192
2021-09-20 20:35:35 GMT 37.813915 -105.895065 34,000 208 382 64
2021-09-20 20:35:27 GMT 37.825562 -105.887398 34,000 208 380 192
2021-09-20 20:35:22 GMT 37.835541 -105.880798 33,975 208 380 0
2021-09-20 20:35:18 GMT 37.840485 -105.877525 34,000 208 379 -64
2021-09-20 20:35:13 GMT 37.847946 -105.872612 34,000 208 379 -128
2021-09-20 20:35:08 GMT 37.857925 -105.866013 34,000 208 379 0
2021-09-20 20:35:04 GMT 37.863728 -105.862167 34,000 208 380 0
2021-09-20 20:34:57 GMT 37.873829 -105.855537 34,000 208 380 64
2021-09-20 20:34:52 GMT 37.880020 -105.851418 34,000 208 380 0
2021-09-20 20:34:48 GMT 37.886581 -105.847137 34,000 208 380 0
2021-09-20 20:34:43 GMT 37.896606 -105.840530 34,000 208 381 0
2021-09-20 20:34:35 GMT 37.908188 -105.832909 34,000 208 382 -64
2021-09-20 20:34:32 GMT 37.913166 -105.829567 34,000 208 383 64
2021-09-20 20:34:28 GMT 37.919083 -105.825630 34,000 208 384 128
2021-09-20 20:34:25 GMT 37.924164 -105.822243 34,000 208 385 0
2021-09-20 20:34:21 GMT 37.929840 -105.818619 34,000 207 386 -128
2021-09-20 20:34:17 GMT 37.936676 -105.814339 34,000 206 388 -128
2021-09-20 20:34:11 GMT 37.947372 -105.807983 34,000 205 390 -128
2021-09-20 20:34:06 GMT 37.953621 -105.804367 34,000 204 390 64
2021-09-20 20:34:03 GMT 37.959274 -105.801262 34,000 204 391 64
2021-09-20 20:33:59 GMT 37.964584 -105.798401 34,000 203 391 0
2021-09-20 20:33:56 GMT 37.971497 -105.794815 34,000 202 392 64
2021-09-20 20:33:53 GMT 37.977734 -105.791771 34,000 201 393 0
2021-09-20 20:33:50 GMT 37.982162 -105.789749 34,000 199 392 64
2021-09-20 20:33:44 GMT 37.990814 -105.786041 34,000 199 393 64
2021-09-20 20:33:39 GMT 38.001755 -105.781204 34,000 200 391 128
2021-09-20 20:33:35 GMT 38.010601 -105.777084 34,000 202 388 -128
2021-09-20 20:33:28 GMT 38.018513 -105.773087 34,000 203 386 64
2021-09-20 20:33:21 GMT 38.031597 -105.766037 34,000 205 383 128
2021-09-20 20:33:18 GMT 38.035599 -105.763710 34,000 205 383 64
2021-09-20 20:33:13 GMT 38.043457 -105.759071 34,000 206 383 -128
2021-09-20 20:33:10 GMT 38.049053 -105.755592 34,000 206 383 -256
2021-09-20 20:33:06 GMT 38.053207 -105.753052 34,000 206 383 -64
2021-09-20 20:33:01 GMT 38.061810 -105.747765 34,000 207 382 192
2021-09-20 20:32:57 GMT 38.069138 -105.743294 34,000 207 382 128
2021-09-20 20:32:52 GMT 38.077076 -105.738335 34,000 207 382 0
2021-09-20 20:32:49 GMT 38.082504 -105.734993 34,000 207 382 -128
2021-09-20 20:32:46 GMT 38.087273 -105.732063 34,000 207 382 -128
2021-09-20 20:32:41 GMT 38.094906 -105.727348 34,000 207 382 -64
2021-09-20 20:32:38 GMT 38.099670 -105.724419 34,000 207 381 -64
2021-09-20 20:32:35 GMT 38.103191 -105.722275 34,000 207 380 64
2021-09-20 20:32:30 GMT 38.111755 -105.716995 34,000 206 381 64
2021-09-20 20:32:27 GMT 38.116104 -105.714310 34,000 207 380 64
2021-09-20 20:32:23 GMT 38.122513 -105.710335 34,000 207 380 -64
2021-09-20 20:32:17 GMT 38.133270 -105.703667 34,000 207 380 -64
2021-09-20 20:32:14 GMT 38.136429 -105.701744 34,000 207 379 -64
2021-09-20 20:32:09 GMT 38.145813 -105.695953 34,000 206 379 -64
2021-09-20 20:32:06 GMT 38.150345 -105.693153 34,000 206 379 0
2021-09-20 20:32:03 GMT 38.154446 -105.690628 34,000 207 378 64
2021-09-20 20:31:57 GMT 38.163849 -105.684776 34,000 207 378 0
2021-09-20 20:31:53 GMT 38.170349 -105.680763 34,000 207 377 -64
2021-09-20 20:31:44 GMT 38.183624 -105.672585 34,000 207 376 -64
2021-09-20 20:31:40 GMT 38.194702 -105.665688 34,000 207 375 64
2021-09-20 20:31:36 GMT 38.197041 -105.664238 34,000 207 375 64
2021-09-20 20:31:32 GMT 38.203140 -105.660477 34,000 207 373 64
2021-09-20 20:31:26 GMT 38.214066 -105.653709 34,000 207 372 0
2021-09-20 20:31:23 GMT 38.220039 -105.649963 34,000 207 372 -128
2021-09-20 20:31:15 GMT 38.230316 -105.643654 34,000 206 372 64
2021-09-20 20:31:12 GMT 38.233429 -105.641724 34,000 207 371 128
2021-09-20 20:31:08 GMT 38.242676 -105.635941 34,000 207 372 128
2021-09-20 20:31:02 GMT 38.250046 -105.631386 34,000 206 372 0
2021-09-20 20:30:59 GMT 38.252907 -105.629601 34,000 206 372 0
2021-09-20 20:30:56 GMT 38.259003 -105.625839 33,975 207 373 64
2021-09-20 20:30:53 GMT 38.263687 -105.622971 33,975 207 373 -64
2021-09-20 20:30:50 GMT 38.269058 -105.619637 34,000 206 374 -128
2021-09-20 20:30:42 GMT 38.280579 -105.612511 34,000 207 375 -128
2021-09-20 20:30:38 GMT 38.285568 -105.609413 34,000 207 375 -64
2021-09-20 20:30:35 GMT 38.292435 -105.605141 34,000 207 375 128
2021-09-20 20:30:32 GMT 38.297287 -105.602104 34,000 207 375 64
2021-09-20 20:30:29 GMT 38.301460 -105.599510 34,000 207 375 64
2021-09-20 20:30:24 GMT 38.308208 -105.595329 34,000 207 375 64
2021-09-20 20:30:18 GMT 38.318310 -105.589066 34,000 207 375 128
2021-09-20 20:30:14 GMT 38.324844 -105.584984 34,000 207 375 -128
2021-09-20 20:30:10 GMT 38.330475 -105.581474 34,000 207 375 -128
2021-09-20 20:30:06 GMT 38.334824 -105.578789 34,000 207 376 -128
2021-09-20 20:30:02 GMT 38.341961 -105.574371 34,000 207 376 0
2021-09-20 20:29:57 GMT 38.351120 -105.568733 34,000 207 376 64
2021-09-20 20:29:53 GMT 38.357986 -105.564415 34,000 206 377 -64
2021-09-20 20:29:49 GMT 38.364166 -105.560616 34,000 206 377 -128
2021-09-20 20:29:45 GMT 38.367611 -105.558495 34,000 207 377 -128
2021-09-20 20:29:41 GMT 38.374786 -105.554008 34,000 207 377 64
2021-09-20 20:29:36 GMT 38.383904 -105.548340 34,000 207 377 64
2021-09-20 20:29:31 GMT 38.390884 -105.543983 34,000 207 377 64
2021-09-20 20:29:27 GMT 38.397823 -105.539742 34,000 207 377 0
2021-09-20 20:29:24 GMT 38.400650 -105.537941 34,000 207 377 0
2021-09-20 20:29:21 GMT 38.407227 -105.533890 34,000 207 377 -64
2021-09-20 20:29:17 GMT 38.417496 -105.527504 34,000 207 376 -64
2021-09-20 20:29:14 GMT 38.417496 -105.527504 34,000 207 376 -64
2021-09-20 20:29:09 GMT 38.424728 -105.522949 34,000 207 376 64
2021-09-20 20:29:04 GMT 38.434040 -105.517029 34,000 207 374 128
2021-09-20 20:29:00 GMT 38.439835 -105.513351 34,000 207 374 64
2021-09-20 20:28:53 GMT 38.450500 -105.506607 34,000 207 374 -64
2021-09-20 20:28:47 GMT 38.458420 -105.501587 34,000 207 374 0
2021-09-20 20:28:41 GMT 38.468399 -105.495262 34,000 207 374 -64
2021-09-20 20:28:38 GMT 38.474354 -105.491455 34,000 207 374 -64
2021-09-20 20:28:35 GMT 38.478424 -105.488869 34,000 207 374 0
2021-09-20 20:28:32 GMT 38.484318 -105.485107 34,000 207 374 0
2021-09-20 20:28:25 GMT 38.495087 -105.478241 34,000 207 374 -64
2021-09-20 20:28:21 GMT 38.500809 -105.474602 34,000 207 374 64
2021-09-20 20:28:16 GMT 38.506348 -105.471077 34,000 207 374 64
2021-09-20 20:28:13 GMT 38.512245 -105.467285 34,000 207 374 64
2021-09-20 20:28:10 GMT 38.516922 -105.464333 34,000 207 375 0
2021-09-20 20:28:07 GMT 38.522209 -105.460999 34,000 207 375 -64
2021-09-20 20:28:04 GMT 38.526855 -105.458061 34,000 207 375 -64
2021-09-20 20:28:00 GMT 38.533985 -105.453491 34,000 207 375 0
2021-09-20 20:27:56 GMT 38.538666 -105.450539 34,000 207 375 128
2021-09-20 20:27:52 GMT 38.544891 -105.446594 34,000 207 376 -64
2021-09-20 20:27:49 GMT 38.550793 -105.442810 34,000 207 375 -64
2021-09-20 20:27:46 GMT 38.555588 -105.439758 34,000 207 374 64
2021-09-20 20:27:42 GMT 38.561966 -105.435669 34,000 207 375 -64
2021-09-20 20:27:39 GMT 38.565083 -105.433655 34,000 207 374 64
2021-09-20 20:27:35 GMT 38.571278 -105.429688 33,975 207 373 128
2021-09-20 20:27:29 GMT 38.581329 -105.423248 33,975 207 373 512
2021-09-20 20:27:25 GMT 38.587803 -105.419189 33,875 207 372 832
2021-09-20 20:27:22 GMT 38.591354 -105.416924 33,900 207 372 832
2021-09-20 20:27:17 GMT 38.599670 -105.411560 33,825 207 372 832
2021-09-20 20:27:13 GMT 38.604309 -105.408623 33,700 207 372 832
2021-09-20 20:27:10 GMT 38.611130 -105.404266 33,725 207 372 832
2021-09-20 20:27:06 GMT 38.616669 -105.400742 33,675 207 372 832
2021-09-20 20:27:03 GMT 38.620972 -105.397995 33,500 207 372 832
2021-09-20 20:26:59 GMT 38.626511 -105.394417 33,575 207 372 832
2021-09-20 20:26:55 GMT 38.633835 -105.389755 33,525 207 372 832
2021-09-20 20:26:51 GMT 38.639755 -105.385986 33,450 207 372 896
2021-09-20 20:26:46 GMT 38.647385 -105.381096 33,375 207 372 960
2021-09-20 20:26:42 GMT 38.653473 -105.377159 33,325 207 372 1024
2021-09-20 20:26:38 GMT 38.660049 -105.372986 33,250 207 372 1088
2021-09-20 20:26:34 GMT 38.665924 -105.369217 33,175 207 372 1024
2021-09-20 20:26:30 GMT 38.671783 -105.365479 33,100 207 373 1088
2021-09-20 20:26:27 GMT 38.674854 -105.363525 33,075 207 373 1088
2021-09-20 20:26:23 GMT 38.682255 -105.358765 32,975 207 373 1216
2021-09-20 20:26:19 GMT 38.688400 -105.354858 32,825 207 374 1280
2021-09-20 20:26:16 GMT 38.694637 -105.350830 32,825 207 374 1280
2021-09-20 20:26:13 GMT 38.699249 -105.347900 32,775 207 375 1280
2021-09-20 20:26:09 GMT 38.704044 -105.344849 32,625 207 376 1280
2021-09-20 20:26:06 GMT 38.708725 -105.341873 32,625 207 377 1344
2021-09-20 20:26:03 GMT 38.714218 -105.338348 32,550 207 377 1216
2021-09-20 20:26:00 GMT 38.719452 -105.334961 32,500 207 377 1152
2021-09-20 20:25:56 GMT 38.725571 -105.331062 32,425 207 377 1024
2021-09-20 20:25:52 GMT 38.730251 -105.328064 32,375 207 377 960
2021-09-20 20:25:49 GMT 38.735233 -105.324829 32,325 207 377 832
2021-09-20 20:25:46 GMT 38.739609 -105.322021 32,300 207 377 832
2021-09-20 20:25:42 GMT 38.746765 -105.317451 32,225 207 377 832
2021-09-20 20:25:38 GMT 38.753632 -105.313034 32,175 207 377 896
2021-09-20 20:25:34 GMT 38.760185 -105.308838 32,100 207 376 896
2021-09-20 20:25:30 GMT 38.765442 -105.305450 32,050 207 376 896
2021-09-20 20:25:26 GMT 38.771667 -105.301445 32,000 207 376 896
2021-09-20 20:25:23 GMT 38.775421 -105.299057 31,975 207 375 896
2021-09-20 20:25:20 GMT 38.780064 -105.296082 31,900 207 375 896
2021-09-20 20:25:17 GMT 38.785950 -105.292313 31,875 207 375 896
2021-09-20 20:25:13 GMT 38.792130 -105.288315 31,775 207 374 896
2021-09-20 20:25:10 GMT 38.796478 -105.285507 31,775 207 373 832
2021-09-20 20:25:05 GMT 38.804489 -105.280312 31,700 207 373 832
2021-09-20 20:25:02 GMT 38.808365 -105.277832 31,650 207 372 832
2021-09-20 20:24:58 GMT 38.815613 -105.273209 31,600 207 372 896
2021-09-20 20:24:54 GMT 38.820236 -105.270203 31,525 207 371 960
2021-09-20 20:24:51 GMT 38.824860 -105.267235 31,500 207 371 1024
2021-09-20 20:24:47 GMT 38.832386 -105.262390 31,425 207 371 1024
2021-09-20 20:24:44 GMT 38.837276 -105.259277 31,325 207 371 1024
2021-09-20 20:24:41 GMT 38.841091 -105.256775 31,325 207 370 1088
2021-09-20 20:24:38 GMT 38.845840 -105.253723 31,275 207 370 1088
2021-09-20 20:24:35 GMT 38.849564 -105.251343 31,225 207 370 1088
2021-09-20 20:24:31 GMT 38.855530 -105.247528 31,150 207 370 1024
2021-09-20 20:24:28 GMT 38.859482 -105.244995 31,100 207 370 1024
2021-09-20 20:24:25 GMT 38.866230 -105.240601 31,050 207 369 960
2021-09-20 20:24:22 GMT 38.870819 -105.237679 30,975 207 369 960
2021-09-20 20:24:19 GMT 38.874481 -105.235291 30,950 207 369 960
2021-09-20 20:24:15 GMT 38.881165 -105.230995 30,875 207 368 960
2021-09-20 20:24:11 GMT 38.886948 -105.227234 30,800 207 368 1024
2021-09-20 20:24:07 GMT 38.892792 -105.223465 30,725 207 368 1024
2021-09-20 20:24:04 GMT 38.898285 -105.219948 30,675 207 368 1152
2021-09-20 20:24:00 GMT 38.903427 -105.216614 30,600 207 367 1216
2021-09-20 20:23:57 GMT 38.906406 -105.214722 30,575 207 367 1216
2021-09-20 20:23:54 GMT 38.913391 -105.210213 30,475 207 367 1216
2021-09-20 20:23:51 GMT 38.916458 -105.208244 30,450 207 367 1216
2021-09-20 20:23:47 GMT 38.923187 -105.203880 30,350 207 367 1088
2021-09-20 20:23:43 GMT 38.929871 -105.199585 30,275 207 367 1088
2021-09-20 20:23:39 GMT 38.936199 -105.195496 30,200 207 367 1088
2021-09-20 20:23:36 GMT 38.938667 -105.193909 30,175 207 367 1088
2021-09-20 20:23:31 GMT 38.947449 -105.188240 30,075 207 366 1152
2021-09-20 20:23:28 GMT 38.952209 -105.185135 30,025 207 366 1216
2021-09-20 20:23:25 GMT 38.955006 -105.183350 29,975 207 366 1216
2021-09-20 20:23:21 GMT 38.962269 -105.178711 29,875 207 366 1280
2021-09-20 20:23:18 GMT 38.968227 -105.174866 29,800 207 366 1344
2021-09-20 20:23:15 GMT 38.971951 -105.172424 29,750 207 366 1344
2021-09-20 20:23:11 GMT 38.983109 -105.165192 29,650 207 366 1344
2021-09-20 20:23:08 GMT 38.987034 -105.162659 29,575 207 366 1280
2021-09-20 20:23:04 GMT 38.987034 -105.162659 29,525 207 366 1280
2021-09-20 20:23:01 GMT 38.995789 -105.157074 29,425 207 362 1024
2021-09-20 20:22:55 GMT 39.006958 -105.149841 29,275 207 364 1152
2021-09-20 20:22:48 GMT 39.012405 -105.146301 29,175 207 364 1088
2021-09-20 20:22:44 GMT 39.018410 -105.142456 29,125 207 362 1024
2021-09-20 20:22:40 GMT 39.024975 -105.138184 29,050 207 361 1088
2021-09-20 20:22:36 GMT 39.030979 -105.134338 28,950 207 361 1152
2021-09-20 20:22:32 GMT 39.036846 -105.130554 28,900 207 360 1152
2021-09-20 20:22:29 GMT 39.040524 -105.128174 28,825 207 360 1088
2021-09-20 20:22:26 GMT 39.044666 -105.125488 28,800 207 359 1088
2021-09-20 20:22:23 GMT 39.049164 -105.122620 28,625 207 358 1088
2021-09-20 20:22:19 GMT 39.060726 -105.115112 28,675 207 358 1088
2021-09-20 20:22:16 GMT 39.060726 -105.115112 28,600 207 358 1152
2021-09-20 20:22:13 GMT 39.065643 -105.111931 28,550 207 358 1216
2021-09-20 20:22:08 GMT 39.071945 -105.107849 28,475 207 356 1216
2021-09-20 20:22:04 GMT 39.077297 -105.104431 28,400 207 356 1216
2021-09-20 20:21:59 GMT 39.084641 -105.099693 28,275 207 355 1152
2021-09-20 20:21:56 GMT 39.089355 -105.096649 28,200 207 354 1152
2021-09-20 20:21:53 GMT 39.092285 -105.094795 28,200 207 354 1152
2021-09-20 20:21:50 GMT 39.098694 -105.090614 28,100 207 353 1152
2021-09-20 20:21:47 GMT 39.103741 -105.087402 28,025 207 352 1216
2021-09-20 20:21:44 GMT 39.107792 -105.084778 28,000 207 352 1216
2021-09-20 20:21:38 GMT 39.114990 -105.080048 27,850 208 351 1280
2021-09-20 20:21:35 GMT 39.119381 -105.077148 27,825 208 350 1344
2021-09-20 20:21:32 GMT 39.122871 -105.074768 27,775 209 348 1344
2021-09-20 20:21:28 GMT 39.130646 -105.068909 27,625 213 344 1344
2021-09-20 20:21:25 GMT 39.134930 -105.065308 27,575 215 342 1344
2021-09-20 20:21:22 GMT 39.137283 -105.063271 27,550 218 339 1344
2021-09-20 20:21:19 GMT 39.141586 -105.059143 27,475 219 339 1344
2021-09-20 20:21:15 GMT 39.147079 -105.053421 26,725 223 334 1472
2021-09-20 20:21:12 GMT 39.149780 -105.050415 27,300 226 331 1472
2021-09-20 20:21:09 GMT 39.154247 -105.045105 27,150 228 331 1472
2021-09-20 20:21:06 GMT 39.160080 -105.037354 27,125 228 331 1472
2021-09-20 20:21:03 GMT 39.160080 -105.037354 27,050 231 329 1408
2021-09-20 20:21:00 GMT 39.163139 -105.032959 27,000 231 328 1408
2021-09-20 20:20:55 GMT 39.167797 -105.025696 26,900 231 328 1472
2021-09-20 20:20:52 GMT 39.171021 -105.020576 26,825 231 328 1472
2021-09-20 20:20:49 GMT 39.173355 -105.016937 26,750 231 328 1536
2021-09-20 20:20:46 GMT 39.176594 -105.011780 26,675 231 328 1600
2021-09-20 20:20:42 GMT 39.179993 -105.006348 26,525 232 329 1664
2021-09-20 20:20:39 GMT 39.183289 -105.001175 26,475 232 329 1600
2021-09-20 20:20:34 GMT 39.191120 -104.988708 26,300 232 329 1472
2021-09-20 20:20:31 GMT 39.191120 -104.988708 26,275 232 329 1408
2021-09-20 20:20:28 GMT 39.193447 -104.985046 26,225 232 329 1280
2021-09-20 20:20:25 GMT 39.199768 -104.974960 26,150 232 329 1280
2021-09-20 20:20:22 GMT 39.199768 -104.974960 26,075 231 328 1280
2021-09-20 20:20:19 GMT 39.202988 -104.969849 26,025 232 324 1664
2021-09-20 20:20:16 GMT 39.204853 -104.966858 25,975 232 327 1344
2021-09-20 20:20:13 GMT 39.207047 -104.963440 25,925 232 327 1344
2021-09-20 20:20:10 GMT 39.211460 -104.956421 25,825 232 327 1344
2021-09-20 20:20:04 GMT 39.216770 -104.947937 25,700 231 327 1280
2021-09-20 20:20:00 GMT 39.220779 -104.941582 25,525 232 326 1216
2021-09-20 20:19:54 GMT 39.225891 -104.933411 25,425 232 326 1216
2021-09-20 20:19:51 GMT 39.228745 -104.928871 25,425 232 326 1216
2021-09-20 20:19:48 GMT 39.231201 -104.924988 25,400 231 325 1280
2021-09-20 20:19:45 GMT 39.234421 -104.919853 25,300 232 325 1408
2021-09-20 20:19:42 GMT 39.237396 -104.915138 25,225 232 325 1408
2021-09-20 20:19:39 GMT 39.240650 -104.909912 25,150 232 324 1472
2021-09-20 20:19:35 GMT 39.244419 -104.903931 25,050 232 324 1600
2021-09-20 20:19:32 GMT 39.247074 -104.899719 24,975 232 324 1472
2021-09-20 20:19:28 GMT 39.250580 -104.894119 24,900 232 324 1536
2021-09-20 20:19:24 GMT 39.254059 -104.888626 24,800 232 324 1600
2021-09-20 20:19:20 GMT 39.258545 -104.881462 24,625 232 323 1728
2021-09-20 20:19:17 GMT 39.261414 -104.876892 24,575 232 323 1728
2021-09-20 20:19:13 GMT 39.265511 -104.870361 24,450 232 323 1600
2021-09-20 20:19:09 GMT 39.268162 -104.866150 24,375 232 322 1856
2021-09-20 20:19:05 GMT 39.271980 -104.860046 24,250 232 323 1600
2021-09-20 20:19:02 GMT 39.274796 -104.855545 24,200 232 322 1664
2021-09-20 20:18:59 GMT 39.278137 -104.850235 24,100 232 322 1664
2021-09-20 20:18:56 GMT 39.281338 -104.845093 23,775 232 322 1792
2021-09-20 20:18:52 GMT 39.284912 -104.839424 23,875 232 322 1792
2021-09-20 20:18:49 GMT 39.287888 -104.834648 23,800 232 322 1792
2021-09-20 20:18:46 GMT 39.290367 -104.830750 23,700 232 322 1856
2021-09-20 20:18:43 GMT 39.293106 -104.826408 23,625 232 322 1856
2021-09-20 20:18:40 GMT 39.295441 -104.822647 23,475 232 323 1792
2021-09-20 20:18:37 GMT 39.298325 -104.817986 23,425 232 323 1728
2021-09-20 20:18:34 GMT 39.301071 -104.813690 23,375 232 323 1664
2021-09-20 20:18:30 GMT 39.305405 -104.806763 23,250 232 323 1664
2021-09-20 20:18:26 GMT 39.309128 -104.800781 23,150 232 323 1472
2021-09-20 20:18:23 GMT 39.311600 -104.796852 23,100 232 323 1408
2021-09-20 20:18:20 GMT 39.314209 -104.792671 23,025 232 322 1344
2021-09-20 20:18:16 GMT 39.319279 -104.784607 22,925 232 322 1344
2021-09-20 20:18:13 GMT 39.321510 -104.781006 22,850 232 322 1216
2021-09-20 20:18:10 GMT 39.326725 -104.772705 22,775 232 321 1280
2021-09-20 20:18:07 GMT 39.326725 -104.772705 22,700 232 320 1344
2021-09-20 20:18:04 GMT 39.328915 -104.769165 22,700 232 320 1344
2021-09-20 20:18:01 GMT 39.331242 -104.765503 22,625 232 320 1408
2021-09-20 20:17:58 GMT 39.334595 -104.760071 22,550 232 320 1536
2021-09-20 20:17:54 GMT 39.338364 -104.754089 22,475 232 319 1536
2021-09-20 20:17:50 GMT 39.342831 -104.746948 22,325 232 319 1472
2021-09-20 20:17:47 GMT 39.344276 -104.744629 22,250 232 319 1408
2021-09-20 20:17:44 GMT 39.347809 -104.738937 22,200 232 318 1472
2021-09-20 20:17:40 GMT 39.351025 -104.733765 22,075 232 318 1472
2021-09-20 20:17:37 GMT 39.354332 -104.728577 22,025 232 317 1472
2021-09-20 20:17:33 GMT 39.357468 -104.723473 21,950 232 317 1408
2021-09-20 20:17:29 GMT 39.362366 -104.715652 21,825 232 317 1408
2021-09-20 20:17:26 GMT 39.364059 -104.712952 21,800 232 317 1408
2021-09-20 20:17:23 GMT 39.367172 -104.707947 21,675 232 316 1408
2021-09-20 20:17:20 GMT 39.370789 -104.702156 21,600 232 315 1408
2021-09-20 20:17:17 GMT 39.373032 -104.698509 21,550 232 315 1344
2021-09-20 20:17:13 GMT 39.377235 -104.691772 21,450 232 314 1344
2021-09-20 20:17:08 GMT 39.380913 -104.685913 21,375 232 313 1408
2021-09-20 20:17:03 GMT 39.385483 -104.678627 21,225 232 312 1280
2021-09-20 20:17:00 GMT 39.387634 -104.675163 21,200 231 311 1216
2021-09-20 20:16:56 GMT 39.392395 -104.667587 21,100 231 311 1216
2021-09-20 20:16:53 GMT 39.395157 -104.663208 21,025 232 309 1344
2021-09-20 20:16:49 GMT 39.398575 -104.657730 20,950 232 308 1408
2021-09-20 20:16:46 GMT 39.401257 -104.653442 20,875 232 308 1408
2021-09-20 20:16:43 GMT 39.403862 -104.649292 20,800 232 307 1344
2021-09-20 20:16:40 GMT 39.407074 -104.644165 20,725 232 305 1344
2021-09-20 20:16:36 GMT 39.409542 -104.640198 20,575 232 304 1472
2021-09-20 20:16:33 GMT 39.413269 -104.634209 20,575 232 304 1472
2021-09-20 20:16:30 GMT 39.414688 -104.631996 20,500 232 304 1472
2021-09-20 20:16:27 GMT 39.418060 -104.626587 20,375 232 303 1600
2021-09-20 20:16:24 GMT 39.420155 -104.623230 20,375 232 303 1664
2021-09-20 20:16:21 GMT 39.423157 -104.618446 20,250 232 303 1984
2021-09-20 20:16:17 GMT 39.427231 -104.612000 20,050 231 304 2560
2021-09-20 20:16:14 GMT 39.429375 -104.608521 19,975 231 305 2688
2021-09-20 20:16:10 GMT 39.432449 -104.603699 19,625 231 309 3264
2021-09-20 20:16:06 GMT 39.436386 -104.597488 19,300 231 310 3392
2021-09-20 20:16:02 GMT 39.439198 -104.592957 19,425 231 312 3392
2021-09-20 20:15:59 GMT 39.442081 -104.588379 19,300 232 315 3008
2021-09-20 20:15:54 GMT 39.448135 -104.578735 19,025 232 317 1728
2021-09-20 20:15:50 GMT 39.451584 -104.573189 18,925 232 317 1536
2021-09-20 20:15:46 GMT 39.454971 -104.567749 18,775 232 315 1408
2021-09-20 20:15:43 GMT 39.458267 -104.562439 18,725 232 315 1408
2021-09-20 20:15:39 GMT 39.461075 -104.557983 18,700 232 315 1408
2021-09-20 20:15:36 GMT 39.464539 -104.552345 18,575 232 313 1408
2021-09-20 20:15:29 GMT 39.470573 -104.542725 18,425 232 312 1664
2021-09-20 20:15:24 GMT 39.476017 -104.533997 18,250 232 312 1856
2021-09-20 20:15:21 GMT 39.477879 -104.531067 18,175 232 311 1728
2021-09-20 20:15:18 GMT 39.480240 -104.527206 18,050 232 312 1920
2021-09-20 20:15:13 GMT 39.485641 -104.518616 17,925 232 311 1792
2021-09-20 20:15:10 GMT 39.487984 -104.514832 17,825 232 311 1728
2021-09-20 20:15:07 GMT 39.489716 -104.512100 17,825 232 311 1728
2021-09-20 20:15:04 GMT 39.495804 -104.502251 17,675 232 310 1472
2021-09-20 20:15:01 GMT 39.495804 -104.502251 17,625 232 310 1536
2021-09-20 20:14:57 GMT 39.498875 -104.497375 17,550 232 309 1536
2021-09-20 20:14:53 GMT 39.503357 -104.490189 17,425 231 307 1600
2021-09-20 20:14:50 GMT 39.505142 -104.487267 17,375 231 307 1600
2021-09-20 20:14:47 GMT 39.508072 -104.482727 17,300 231 306 1664
2021-09-20 20:14:44 GMT 39.510838 -104.478394 17,125 228 307 1664
2021-09-20 20:14:41 GMT 39.513912 -104.473938 17,100 227 307 1600
2021-09-20 20:14:37 GMT 39.517868 -104.468628 17,000 224 308 1600
2021-09-20 20:14:33 GMT 39.522812 -104.462906 16,875 220 309 1536
2021-09-20 20:14:30 GMT 39.525925 -104.459679 16,800 218 308 1600
2021-09-20 20:14:26 GMT 39.529587 -104.456215 16,725 215 310 1472
2021-09-20 20:14:23 GMT 39.533066 -104.453232 16,625 209 310 1408
2021-09-20 20:14:20 GMT 39.537655 -104.449707 16,525 208 311 1472
2021-09-20 20:14:16 GMT 39.542866 -104.446106 16,475 207 311 1472
2021-09-20 20:14:12 GMT 39.547348 -104.443436 16,400 204 312 1472
2021-09-20 20:14:09 GMT 39.552456 -104.440674 16,300 203 311 1344
2021-09-20 20:14:05 GMT 39.556503 -104.438545 16,225 203 310 1344
2021-09-20 20:14:00 GMT 39.562958 -104.435196 16,125 203 309 1344
2021-09-20 20:13:57 GMT 39.566936 -104.433105 16,050 203 309 1408
2021-09-20 20:13:54 GMT 39.571472 -104.430664 15,975 203 309 1600
2021-09-20 20:13:51 GMT 39.575180 -104.428749 15,875 203 307 1920
2021-09-20 20:13:46 GMT 39.583145 -104.424515 15,675 203 306 2048
2021-09-20 20:13:43 GMT 39.584995 -104.423523 15,625 203 306 2048
2021-09-20 20:13:38 GMT 39.593285 -104.419128 15,275 203 306 2240
2021-09-20 20:13:34 GMT 39.597614 -104.416870 15,275 203 307 2176
2021-09-20 20:13:31 GMT 39.604248 -104.413345 14,775 203 308 2432
2021-09-20 20:13:27 GMT 39.607407 -104.411674 14,975 203 308 2624
2021-09-20 20:13:24 GMT 39.611393 -104.409607 14,850 203 309 2880
2021-09-20 20:13:17 GMT 39.621449 -104.404236 14,425 203 312 3712
2021-09-20 20:13:13 GMT 39.625534 -104.402122 14,350 203 313 3712
2021-09-20 20:13:09 GMT 39.631485 -104.398956 13,975 203 318 3456
2021-09-20 20:13:04 GMT 39.638077 -104.395493 13,650 203 321 2944
2021-09-20 20:13:01 GMT 39.643887 -104.392456 13,525 203 322 2688
2021-09-20 20:12:58 GMT 39.645981 -104.391296 13,475 203 322 2624
2021-09-20 20:12:53 GMT 39.653503 -104.387314 13,225 203 324 2752
2021-09-20 20:12:48 GMT 39.660038 -104.383789 13,000 203 325 2560
2021-09-20 20:12:44 GMT 39.665627 -104.380798 12,850 203 325 2240
2021-09-20 20:12:41 GMT 39.668152 -104.379433 12,800 203 326 2304
2021-09-20 20:12:38 GMT 39.675121 -104.375793 12,600 202 326 2176
2021-09-20 20:12:33 GMT 39.680756 -104.372925 12,400 201 326 2432
2021-09-20 20:12:30 GMT 39.684711 -104.370972 12,350 201 326 2560
2021-09-20 20:12:26 GMT 39.689785 -104.368530 12,200 200 327 2432
2021-09-20 20:12:23 GMT 39.695892 -104.365936 12,025 196 328 2496
2021-09-20 20:12:19 GMT 39.700356 -104.364502 11,900 193 330 2624
2021-09-20 20:12:16 GMT 39.705753 -104.363281 11,750 188 332 2432
2021-09-20 20:12:12 GMT 39.713108 -104.362488 11,575 183 334 2304
2021-09-20 20:12:09 GMT 39.715668 -104.362427 11,525 181 334 2304
2021-09-20 20:12:06 GMT 39.720886 -104.362595 11,375 174 335 2368
2021-09-20 20:11:59 GMT 39.731415 -104.364265 11,100 169 335 1984
2021-09-20 20:11:51 GMT 39.744949 -104.368774 10,850 163 331 2368
2021-09-20 20:11:48 GMT 39.747326 -104.369629 10,775 163 330 2688
2021-09-20 20:11:38 GMT 39.763012 -104.375549 10,375 164 326 1728
2021-09-20 20:11:28 GMT 39.776688 -104.380684 10,175 163 321 1408
2021-09-20 20:11:22 GMT 39.784382 -104.383728 9,800 113 251 768
2021-09-20 20:11:18 GMT 39.791039 -104.386658 9,875 158 314 1600
2021-09-20 20:11:15 GMT 39.804428 -104.396149 9,800 136 307 256
2021-09-20 20:11:08 GMT 39.804428 -104.396149 9,800 141 307 -64
2021-09-20 20:11:05 GMT 39.807190 -104.399170 9,800 136 307 256
2021-09-20 20:10:56 GMT 39.815735 -104.412567 9,775 122 304 -448
2021-09-20 20:10:53 GMT 39.816879 -104.415077 9,775 120 303 -448
2021-09-20 20:10:44 GMT 39.822647 -104.430908 9,800 114 289 128
2021-09-20 20:10:34 GMT 39.827820 -104.446426 9,800 113 278 0
2021-09-20 20:10:24 GMT 39.833920 -104.465553 8,700 113 222 3136
2021-09-20 20:10:23 GMT 39.834339 -104.466766 8,700 113 222 3136
2021-09-20 20:10:21 GMT 39.835178 -104.469208 8,700 113 222 3136
2021-09-20 20:10:20 GMT 39.835602 -104.470428 8,700 113 222 3136
2021-09-20 20:10:18 GMT 39.836441 -104.472870 8,700 113 222 3136
2021-09-20 20:10:17 GMT 39.836861 -104.474091 8,700 113 222 3136
2021-09-20 20:10:16 GMT 39.837688 -104.476532 8,700 113 222 3136
2021-09-20 20:10:14 GMT 39.838112 -104.477753 8,700 113 222 3136
2021-09-20 20:10:13 GMT 39.838531 -104.478973 8,700 113 222 3136
2021-09-20 20:10:12 GMT 39.839371 -104.481407 8,700 113 222 3136
2021-09-20 20:10:10 GMT 39.839790 -104.482628 8,700 113 222 3136
2021-09-20 20:10:09 GMT 39.840210 -104.483849 8,700 113 222 3136
2021-09-20 20:10:07 GMT 39.841042 -104.486290 8,700 113 222 3136
2021-09-20 20:10:06 GMT 39.841461 -104.487511 8,700 113 222 3136
2021-09-20 20:10:04 GMT 39.842300 -104.489952 8,700 113 222 3136
2021-09-20 20:10:03 GMT 39.842720 -104.491173 8,700 113 222 3136
2021-09-20 20:10:02 GMT 39.843140 -104.492393 8,700 113 222 3136
2021-09-20 20:10:00 GMT 39.843971 -104.494827 8,700 113 222 3136
2021-09-20 20:09:59 GMT 39.844391 -104.496048 8,700 113 222 3136
2021-09-20 20:09:58 GMT 39.845230 -104.498489 8,700 113 222 3136
2021-09-20 20:09:56 GMT 39.845650 -104.499710 8,700 113 222 3136
2021-09-20 20:09:55 GMT 39.846069 -104.500931 8,700 113 222 3136
2021-09-20 20:09:54 GMT 39.846481 -104.502151 8,700 113 222 3136
2021-09-20 20:09:52 GMT 39.847370 -104.504883 8,700 114 218 3136
2021-09-20 20:09:51 GMT 39.847790 -104.506073 8,700 114 218 3136
2021-09-20 20:09:49 GMT 39.848621 -104.508461 8,700 114 218 3136
2021-09-20 20:09:48 GMT 39.848930 -104.509361 8,500 113 231 3136
2021-09-20 20:09:47 GMT 39.849800 -104.511879 8,500 113 231 3136
2021-09-20 20:09:45 GMT 39.850239 -104.513153 8,500 113 231 3136
2021-09-20 20:09:44 GMT 39.850681 -104.514412 8,500 113 231 3136
2021-09-20 20:09:42 GMT 39.851521 -104.516724 8,000 113 238 3136
2021-09-20 20:09:41 GMT 39.851959 -104.518028 8,000 113 238 3136
2021-09-20 20:09:40 GMT 39.852852 -104.520599 8,000 113 240 3136
2021-09-20 20:09:38 GMT 39.853279 -104.521973 8,000 113 238 2464
2021-09-20 20:09:37 GMT 39.853722 -104.523262 8,000 113 239 2464
2021-09-20 20:09:36 GMT 39.854580 -104.525902 8,000 114 238 2464
2021-09-20 20:09:34 GMT 39.855030 -104.527153 7,800 114 240 2464
2021-09-20 20:09:33 GMT 39.855492 -104.528503 7,800 114 239 2464
2021-09-20 20:09:32 GMT 39.855961 -104.529846 7,800 114 237 2464
2021-09-20 20:09:30 GMT 39.856831 -104.532410 7,800 114 239 2464
2021-09-20 20:09:29 GMT 39.857330 -104.533730 7,400 114 237 2464
2021-09-20 20:09:27 GMT 39.858681 -104.537666 7,400 114 235 2464
2021-09-20 20:09:25 GMT 39.859112 -104.538940 7,400 114 237 2464
2021-09-20 20:09:24 GMT 39.859550 -104.540253 7,400 114 236 2464
2021-09-20 20:09:22 GMT 39.860470 -104.542862 7,400 114 233 2464
2021-09-20 20:09:21 GMT 39.860931 -104.544128 7,400 114 232 2464
2021-09-20 20:09:20 GMT 39.861382 -104.545410 7,200 114 233 2464
2021-09-20 20:09:18 GMT 39.862251 -104.547943 7,200 114 235 2464
2021-09-20 20:09:17 GMT 39.863140 -104.550453 7,200 115 240 2464
2021-09-20 20:09:15 GMT 39.863609 -104.551773 7,100 115 239 2464
2021-09-20 20:09:13 GMT 39.864578 -104.554451 7,100 116 233 2464
2021-09-20 20:09:12 GMT 39.865051 -104.555862 7,100 116 228 2464
2021-09-20 20:09:11 GMT 39.865520 -104.557030 7,000 116 230 2464
2021-09-20 20:09:09 GMT 39.866428 -104.559547 7,000 117 230 2464
2021-09-20 20:09:08 GMT 39.866909 -104.560783 7,000 117 230 2464
2021-09-20 20:09:07 GMT 39.867378 -104.562027 7,000 117 229 2464
2021-09-20 20:09:05 GMT 39.868328 -104.564423 6,800 116 233 2464
2021-09-20 20:09:03 GMT 39.869259 -104.566948 6,800 116 229 2464
2021-09-20 20:09:02 GMT 39.869720 -104.568108 6,800 115 232 2464
2021-09-20 20:09:01 GMT 39.870209 -104.569389 6,800 115 228 2464
2021-09-20 20:09:00 GMT 39.870670 -104.570648 6,800 115 226 2464
2021-09-20 20:08:59 GMT 39.871578 -104.573196 6,800 114 217 2464
2021-09-20 20:08:57 GMT 39.872002 -104.574364 6,700 113 218 2464
2021-09-20 20:08:56 GMT 39.872379 -104.575569 6,700 113 218 2464
2021-09-20 20:08:54 GMT 39.873138 -104.577957 6,700 112 220 2464
2021-09-20 20:08:52 GMT 39.873951 -104.580307 6,650 108 221 2464
2021-09-20 20:08:50 GMT 39.874660 -104.582748 6,400 105 218 2464
2021-09-20 20:08:49 GMT 39.874962 -104.584068 6,400 104 212 2464
2021-09-20 20:08:47 GMT 39.875549 -104.586502 6,400 99 208 2464
2021-09-20 20:08:46 GMT 39.875778 -104.587761 6,400 98 205 2464
2021-09-20 20:08:44 GMT 39.876068 -104.590187 6,400 97 203 2464
2021-09-20 20:08:43 GMT 39.876209 -104.591339 6,425 96 206 2464
2021-09-20 20:08:42 GMT 39.876331 -104.592567 6,300 95 204 2464
2021-09-20 20:08:40 GMT 39.876518 -104.595009 6,300 94 203 2464
2021-09-20 20:08:39 GMT 39.876598 -104.596268 6,300 94 200 2464
2021-09-20 20:08:38 GMT 39.876770 -104.598709 6,175 92 195 256
2021-09-20 20:08:36 GMT 39.876781 -104.599861 6,125 93 198 256
2021-09-20 20:08:35 GMT 39.876862 -104.601021 6,100 92 199 256
2021-09-20 20:08:33 GMT 39.876930 -104.603500 6,000 92 189 256
2021-09-20 20:08:32 GMT 39.876999 -104.604561 5,950 91 198 256
2021-09-20 20:08:31 GMT 39.877022 -104.606949 5,900 92 195 256
2021-09-20 20:08:29 GMT 39.877102 -104.608109 5,850 91 196 256
2021-09-20 20:08:28 GMT 39.877140 -104.610474 5,725 91 198 256
2021-09-20 20:08:26 GMT 39.877159 -104.611679 5,725 92 196 256
2021-09-20 20:08:24 GMT 39.877220 -104.614021 5,650 91 195 256
2021-09-20 20:08:23 GMT 39.877239 -104.615219 5,625 91 192 256
2021-09-20 20:08:22 GMT 39.877289 -104.616371 5,600 91 193 256
2021-09-20 20:08:21 GMT 39.877312 -104.617531 5,500 90 192 256
2021-09-20 20:08:20 GMT 39.877361 -104.619812 5,375 89 190 256
2021-09-20 20:08:18 GMT 39.877319 -104.620987 5,375 90 188 256
2021-09-20 20:08:17 GMT 39.877331 -104.622078 5,375 90 192 256
2021-09-20 20:08:15 GMT 39.877331 -104.624397 5,325 90 188 256
2021-09-20 20:08:14 GMT 39.877338 -104.625557 5,300 90 186 256
2021-09-20 20:08:12 GMT 39.877350 -104.627769 5,225 90 188 256
2021-09-20 20:08:11 GMT 39.877361 -104.628906 5,200 90 186 256
2021-09-20 20:08:09 GMT 39.877361 -104.631126 5,100 90 185 256
2021-09-20 20:08:08 GMT 39.877380 -104.632210 5,100 90 185 256
2021-09-20 20:08:07 GMT 39.877392 -104.633324 5,100 90 184 256
2021-09-20 20:08:06 GMT 39.877392 -104.635498 5,075 90 180 -576
2021-09-20 20:08:03 GMT 39.877411 -104.637650 5,100 90 176 64
2021-09-20 20:08:02 GMT 39.877430 -104.638687 5,100 90 174 64
2021-09-20 20:08:01 GMT 39.877441 -104.639771 5,100 90 168 64
2021-09-20 20:08:00 GMT 39.877430 -104.641792 5,100 90 161 64
2021-09-20 20:07:58 GMT 39.877430 -104.642769 5,100 90 157 64
2021-09-20 20:07:57 GMT 39.877419 -104.643692 5,100 90 155 -192
2021-09-20 20:07:55 GMT 39.877460 -104.645576 5,100 90 146 -192
2021-09-20 20:07:54 GMT 39.877480 -104.646469 5,125 90 143 -192
2021-09-20 20:07:52 GMT 39.877468 -104.648170 5,125 90 137 0
2021-09-20 20:07:51 GMT 39.877480 -104.649002 5,125 90 132 0
2021-09-20 20:07:49 GMT 39.877499 -104.650581 5,125 90 126 0
2021-09-20 20:07:48 GMT 39.877522 -104.651352 5,125 89 121 0
2021-09-20 20:07:46 GMT 39.877510 -104.652779 5,125 90 114 0
2021-09-20 20:07:45 GMT 39.877529 -104.653473 5,125 90 111 0
2021-09-20 20:07:44 GMT 39.877522 -104.654823 5,125 90 100 0
2021-09-20 20:07:42 GMT 39.877510 -104.655441 5,125 91 96 0
2021-09-20 20:07:40 GMT 39.877541 -104.656578 5,125 90 87 -352
2021-09-20 20:07:39 GMT 39.877529 -104.657082 5,125 90 85 -352
2021-09-20 20:07:38 GMT 39.877541 -104.658142 5,125 90 73 -160
2021-09-20 20:07:36 GMT 39.877560 -104.658577 5,125 89 69 0
2021-09-20 20:07:35 GMT 39.877548 -104.658997 5,125 89 65 0
2021-09-20 20:07:33 GMT 39.877548 -104.659752 0 90 55 0
2021-09-20 20:07:32 GMT 39.877541 -104.660133 0 91 48 0
2021-09-20 20:07:31 GMT 39.877548 -104.660439 0 90 42 0
2021-09-20 20:07:29 GMT 39.877548 -104.660980 0 92 29 0
2021-09-20 20:07:28 GMT 39.877571 -104.661232 0 88 21 0
2021-09-20 20:07:26 GMT 39.877571 -104.661552 0 86 11 0
2021-09-20 20:07:25 GMT 39.877571 -104.661682 0 85 7 0
2021-09-20 20:07:23 GMT 39.877548 -104.661781 0 90 3 0
2021-09-20 20:07:22 GMT 39.877560 -104.661827 0 90 0 0
2021-09-20 20:07:20 GMT 39.877548 -104.661850 0 90 0 0
2021-09-20 20:06:59 GMT 39.877548 -104.661858 0 91 0 0
2021-09-20 20:06:58 GMT 39.877541 -104.661873 0 91 0 0
2021-09-20 20:06:57 GMT 39.877541 -104.661858 0 92 0 0
2021-09-20 20:06:56 GMT 39.877548 -104.661842 0 94 2 0
2021-09-20 20:06:54 GMT 39.877548 -104.661850 0 105 3 0
2021-09-20 20:06:51 GMT 39.877541 -104.661888 0 114 5 0
2021-09-20 20:06:50 GMT 39.877560 -104.661888 0 98 6 0
2021-09-20 20:06:49 GMT 39.877571 -104.661972 0 63 4 0
2021-09-20 20:06:47 GMT 39.877571 -104.662010 0 47 3 0
2021-09-20 20:06:45 GMT 39.877560 -104.662041 0 16 6 0
2021-09-20 20:06:43 GMT 39.877522 -104.662048 0 10 10 0
2021-09-20 20:06:42 GMT 39.877491 -104.662079 0 6 12 0
2021-09-20 20:06:41 GMT 39.877441 -104.662079 0 5 12 0
2021-09-20 20:06:40 GMT 39.877319 -104.662117 0 357 13 0
2021-09-20 20:06:38 GMT 39.877201 -104.662102 0 359 13 0
2021-09-20 20:06:36 GMT 39.877151 -104.662109 0 358 15 0
2021-09-20 20:06:35 GMT 39.877090 -104.662102 0 359 17 0
2021-09-20 20:06:33 GMT 39.876942 -104.662109 0 358 16 0
2021-09-20 20:06:32 GMT 39.876869 -104.662102 0 1 14 0
2021-09-20 20:06:31 GMT 39.876801 -104.662102 0 1 13 0
2021-09-20 20:06:30 GMT 39.876678 -104.662102 0 3 10 0
2021-09-20 20:06:28 GMT 39.876629 -104.662102 0 3 9 0
2021-09-20 20:06:27 GMT 39.876572 -104.662109 0 0 7 0
2021-09-20 20:06:25 GMT 39.876450 -104.662109 0 12 0 0
2021-09-20 20:06:24 GMT 39.876461 -104.662102 0 12 2 0
2021-09-20 20:06:22 GMT 39.876438 -104.662117 0 12 0 0
2021-09-20 20:06:21 GMT 39.876431 -104.662132 0 12 0 0
2021-09-20 20:06:19 GMT 39.876438 -104.662140 0 12 2 0
2021-09-20 20:06:18 GMT 39.876419 -104.662117 0 12 0 0
2021-09-20 20:06:17 GMT 39.876411 -104.662117 0 12 0 0
2021-09-20 20:06:11 GMT 39.876419 -104.662109 0 12 0 0
2021-09-20 20:06:08 GMT 39.876419 -104.662117 0 11 0 0
2021-09-20 20:06:07 GMT 39.876419 -104.662132 0 11 0 0
2021-09-20 20:06:05 GMT 39.876419 -104.662109 0 11 0 0
2021-09-20 20:06:04 GMT 39.876411 -104.662117 0 11 0 0
2021-09-20 20:06:03 GMT 39.876419 -104.662117 0 11 1 0
2021-09-20 20:06:01 GMT 39.876411 -104.662109 0 12 1 0
2021-09-20 20:06:00 GMT 39.876419 -104.662109 0 6 3 0
2021-09-20 20:05:58 GMT 39.876419 -104.662117 0 359 6 0
2021-09-20 20:05:57 GMT 39.876389 -104.662132 0 353 6 0
2021-09-20 20:05:56 GMT 39.876369 -104.662132 0 354 6 0
2021-09-20 20:05:54 GMT 39.876308 -104.662109 0 4 6 0
2021-09-20 20:05:53 GMT 39.876289 -104.662132 0 356 6 0
2021-09-20 20:05:52 GMT 39.876270 -104.662117 0 356 8 0
2021-09-20 20:05:50 GMT 39.876179 -104.662102 0 6 5 0
2021-09-20 20:05:49 GMT 39.876148 -104.662117 0 359 7 0
2021-09-20 20:05:47 GMT 39.876091 -104.662109 0 7 3 0
2021-09-20 20:05:46 GMT 39.876080 -104.662117 0 5 4 0
2021-09-20 20:05:44 GMT 39.876041 -104.662132 0 354 5 0
2021-09-20 20:05:43 GMT 39.875999 -104.662132 0 350 4 0
2021-09-20 20:05:42 GMT 39.875980 -104.662132 0 350 4 0
2021-09-20 20:05:40 GMT 39.875950 -104.662117 0 357 4 0
2021-09-20 20:05:39 GMT 39.875938 -104.662109 0 4 6 0
2021-09-20 20:05:37 GMT 39.875870 -104.662117 0 1 3 0
2021-09-20 20:05:36 GMT 39.875858 -104.662117 0 351 3 0
2021-09-20 20:05:35 GMT 39.875839 -104.662117 0 359 4 0
2021-09-20 20:05:33 GMT 39.875809 -104.662109 0 3 2 0
2021-09-20 20:05:32 GMT 39.875820 -104.662109 0 1 5 0
2021-09-20 20:05:30 GMT 39.875759 -104.662109 0 3 2 0
2021-09-20 20:05:29 GMT 39.875729 -104.662140 0 0 1 0
2021-09-20 20:05:27 GMT 39.875759 -104.662109 0 5 4 0
2021-09-20 20:05:26 GMT 39.875702 -104.662109 0 4 3 0
2021-09-20 20:05:24 GMT 39.875690 -104.662140 0 3 1 0
2021-09-20 20:05:23 GMT 39.875679 -104.662148 0 3 1 0
2021-09-20 20:05:22 GMT 39.875679 -104.662132 0 4 2 0
2021-09-20 20:05:20 GMT 39.875660 -104.662132 0 5 0 0
2021-09-20 20:05:17 GMT 39.875622 -104.662132 0 5 0 0
2021-09-20 20:05:16 GMT 39.875622 -104.662140 0 5 0 0
2021-09-20 20:05:15 GMT 39.875622 -104.662132 0 5 0 0
2021-09-20 20:05:13 GMT 39.875610 -104.662132 0 5 0 0
2021-09-20 20:05:10 GMT 39.875610 -104.662140 0 5 0 0
2021-09-20 20:05:08 GMT 39.875622 -104.662140 0 5 0 0
2021-09-20 20:05:05 GMT 39.875599 -104.662132 0 5 0 0
2021-09-20 20:05:00 GMT 39.875599 -104.662132 0 5 0 0
2021-09-20 20:04:58 GMT 39.875610 -104.662117 0 5 0 0
2021-09-20 20:04:55 GMT 39.875599 -104.662117 0 6 0 0
2021-09-20 20:04:54 GMT 39.875591 -104.662102 0 1 3 0
2021-09-20 20:04:50 GMT 39.875610 -104.662140 0 358 0 0
2021-09-20 20:04:49 GMT 39.875610 -104.662132 0 358 0 0
2021-09-20 20:04:46 GMT 39.875599 -104.662132 0 358 0 0
2021-09-20 20:04:42 GMT 39.875610 -104.662132 0 7 0 0
2021-09-20 20:04:39 GMT 39.875599 -104.662132 0 7 0 0
2021-09-20 20:04:38 GMT 39.875610 -104.662140 0 6 0 0
2021-09-20 20:04:37 GMT 39.875599 -104.662140 0 6 0 0
2021-09-20 20:04:35 GMT 39.875599 -104.662140 0 6 0 0
2021-09-20 20:04:34 GMT 39.875610 -104.662132 0 4 0 0
2021-09-20 20:04:32 GMT 39.875591 -104.662117 0 4 0 0
2021-09-20 20:04:31 GMT 39.875610 -104.662132 0 2 2 0
2021-09-20 20:04:30 GMT 39.875610 -104.662117 0 3 3 0
2021-09-20 20:04:28 GMT 39.875580 -104.662109 0 6 3 0
2021-09-20 20:04:26 GMT 39.875549 -104.662117 0 357 3 0
2021-09-20 20:04:24 GMT 39.875519 -104.662132 0 357 0 0
2021-09-20 20:04:22 GMT 39.875511 -104.662163 0 358 3 0
2021-09-20 20:04:21 GMT 39.875511 -104.662132 0 357 2 0
2021-09-20 20:04:20 GMT 39.875511 -104.662109 0 358 3 0
2021-09-20 20:04:18 GMT 39.875469 -104.662117 0 354 0 0
2021-09-20 20:04:17 GMT 39.875481 -104.662117 0 350 2 0
2021-09-20 20:04:15 GMT 39.875469 -104.662140 0 349 2 0
2021-09-20 20:04:14 GMT 39.875481 -104.662140 0 348 4 0
2021-09-20 20:04:13 GMT 39.875462 -104.662163 0 346 5 0
2021-09-20 20:04:12 GMT 39.875431 -104.662117 0 4 6 0
2021-09-20 20:04:10 GMT 39.875389 -104.662117 0 7 5 0
2021-09-20 20:04:09 GMT 39.875351 -104.662117 0 7 6 0
2021-09-20 20:04:07 GMT 39.875320 -104.662132 0 1 6 0
2021-09-20 20:04:06 GMT 39.875278 -104.662148 0 354 6 0
2021-09-20 20:04:05 GMT 39.875259 -104.662148 0 353 7 0
2021-09-20 20:04:04 GMT 39.875210 -104.662132 0 7 9 0
2021-09-20 20:04:02 GMT 39.875160 -104.662109 0 7 8 0
2021-09-20 20:04:01 GMT 39.875069 -104.662140 0 355 6 0
2021-09-20 20:03:59 GMT 39.875031 -104.662163 0 349 5 0
2021-09-20 20:03:58 GMT 39.875000 -104.662140 0 358 4 0
2021-09-20 20:03:56 GMT 39.874981 -104.662132 0 0 8 0
2021-09-20 20:03:55 GMT 39.874931 -104.662132 0 2 7 0
2021-09-20 20:03:53 GMT 39.874882 -104.662117 0 9 6 0
2021-09-20 20:03:52 GMT 39.874870 -104.662117 0 5 8 0
2021-09-20 20:03:50 GMT 39.874790 -104.662148 0 353 6 0
2021-09-20 20:03:49 GMT 39.874760 -104.662140 0 358 5 0
2021-09-20 20:03:47 GMT 39.874710 -104.662140 0 359 6 0
2021-09-20 20:03:46 GMT 39.874680 -104.662140 0 2 5 0
2021-09-20 20:03:45 GMT 39.874641 -104.662140 0 3 7 0
2021-09-20 20:03:43 GMT 39.874599 -104.662140 0 358 7 0
2021-09-20 20:03:42 GMT 39.874569 -104.662163 0 352 7 0
2021-09-20 20:03:40 GMT 39.874489 -104.662132 0 4 5 0
2021-09-20 20:03:39 GMT 39.874481 -104.662132 0 1 6 0
2021-09-20 20:03:37 GMT 39.874432 -104.662148 0 353 7 0
2021-09-20 20:03:36 GMT 39.874390 -104.662132 0 2 6 0
2021-09-20 20:03:34 GMT 39.874310 -104.662086 0 24 5 0
2021-09-20 20:03:33 GMT 39.874310 -104.662117 0 8 6 0
2021-09-20 20:03:31 GMT 39.874260 -104.662148 0 356 5 0
2021-09-20 20:03:30 GMT 39.874229 -104.662148 0 357 5 0
2021-09-20 20:03:29 GMT 39.874180 -104.662140 0 2 5 0
2021-09-20 20:03:27 GMT 39.874149 -104.662148 0 357 5 0
2021-09-20 20:03:26 GMT 39.874130 -104.662148 0 0 5 0
2021-09-20 20:03:24 GMT 39.874069 -104.662148 0 359 6 0
2021-09-20 20:03:23 GMT 39.874039 -104.662140 0 1 5 0
2021-09-20 20:03:22 GMT 39.874039 -104.662148 0 357 7 0
2021-09-20 20:03:21 GMT 39.873970 -104.662163 0 351 6 0
2021-09-20 20:03:19 GMT 39.873940 -104.662140 0 357 6 0
2021-09-20 20:03:18 GMT 39.873878 -104.662140 0 359 4 0
2021-09-20 20:03:15 GMT 39.873840 -104.662132 0 2 3 0
2021-09-20 20:03:13 GMT 39.873798 -104.662132 0 2 3 0
2021-09-20 20:03:12 GMT 39.873779 -104.662140 0 350 4 0
2021-09-20 20:03:10 GMT 39.873760 -104.662148 0 345 3 0
2021-09-20 20:03:09 GMT 39.873749 -104.662140 0 358 4 0
2021-09-20 20:03:08 GMT 39.873699 -104.662109 0 18 2 0
2021-09-20 20:03:06 GMT 39.873692 -104.662140 0 14 1 0
2021-09-20 20:03:03 GMT 39.873692 -104.662117 0 17 4 0
2021-09-20 20:03:02 GMT 39.873619 -104.662140 0 21 2 0
2021-09-20 20:03:00 GMT 39.873569 -104.662140 0 22 0 0
2021-09-20 20:02:59 GMT 39.873619 -104.662132 0 22 2 0
2021-09-20 20:02:56 GMT 39.873611 -104.662132 0 22 2 0
2021-09-20 20:02:55 GMT 39.873589 -104.662140 0 23 1 0
2021-09-20 20:02:53 GMT 39.873539 -104.662148 0 23 0 0
2021-09-20 20:02:50 GMT 39.873550 -104.662148 0 23 2 0
2021-09-20 20:02:49 GMT 39.873531 -104.662140 0 24 0 0
2021-09-20 20:02:48 GMT 39.873520 -104.662140 0 24 0 0
2021-09-20 20:02:45 GMT 39.873520 -104.662148 0 24 0 0
2021-09-20 20:02:44 GMT 39.873508 -104.662140 0 24 0 0
2021-09-20 20:02:43 GMT 39.873508 -104.662148 0 24 0 0
2021-09-20 20:02:41 GMT 39.873508 -104.662148 0 24 0 0
2021-09-20 20:02:39 GMT 39.873508 -104.662140 0 27 0 0
2021-09-20 20:02:38 GMT 39.873531 -104.662148 0 27 1 0
2021-09-20 20:02:36 GMT 39.873508 -104.662140 0 28 0 0
2021-09-20 20:02:35 GMT 39.873508 -104.662148 0 28 0 0
2021-09-20 20:02:34 GMT 39.873531 -104.662163 0 28 1 0
2021-09-20 20:02:32 GMT 39.873508 -104.662140 0 30 0 0
2021-09-20 20:02:31 GMT 39.873508 -104.662148 0 30 1 0
2021-09-20 20:02:30 GMT 39.873501 -104.662163 0 31 1 0
2021-09-20 20:02:29 GMT 39.873508 -104.662132 0 18 2 0
2021-09-20 20:02:27 GMT 39.873520 -104.662140 0 20 0 0
2021-09-20 20:02:25 GMT 39.873520 -104.662148 0 15 0 0
2021-09-20 20:02:24 GMT 39.873531 -104.662148 0 13 0 0
2021-09-20 20:02:22 GMT 39.873520 -104.662148 0 13 0 0
2021-09-20 20:02:21 GMT 39.873539 -104.662132 0 13 2 0
2021-09-20 20:02:20 GMT 39.873539 -104.662140 0 11 4 0
2021-09-20 20:02:18 GMT 39.873489 -104.662170 0 0 2 0
2021-09-20 20:02:17 GMT 39.873489 -104.662140 0 10 4 0
2021-09-20 20:02:15 GMT 39.873459 -104.662148 0 1 5 0
2021-09-20 20:02:14 GMT 39.873451 -104.662170 0 354 5 0
2021-09-20 20:02:12 GMT 39.873402 -104.662163 0 358 5 0
2021-09-20 20:02:11 GMT 39.873379 -104.662140 0 10 6 0
2021-09-20 20:02:10 GMT 39.873341 -104.662140 0 11 4 0
2021-09-20 20:02:08 GMT 39.873299 -104.662163 0 341 3 0
2021-09-20 20:02:07 GMT 39.873299 -104.662193 0 336 6 0
2021-09-20 20:02:06 GMT 39.873268 -104.662148 0 351 6 0
2021-09-20 20:02:05 GMT 39.873230 -104.662117 0 3 5 0
2021-09-20 20:02:03 GMT 39.873211 -104.662117 0 4 7 0
2021-09-20 20:02:02 GMT 39.873180 -104.662117 0 8 6 0
2021-09-20 20:02:00 GMT 39.873131 -104.662148 0 356 7 0
2021-09-20 20:01:59 GMT 39.873089 -104.662140 0 0 6 0
2021-09-20 20:01:57 GMT 39.873032 -104.662117 0 10 5 0
2021-09-20 20:01:56 GMT 39.873001 -104.662140 0 7 6 0
2021-09-20 20:01:54 GMT 39.872952 -104.662148 0 359 6 0
2021-09-20 20:01:53 GMT 39.872921 -104.662163 0 358 6 0
2021-09-20 20:01:51 GMT 39.872871 -104.662148 0 358 7 0
2021-09-20 20:01:50 GMT 39.872829 -104.662148 0 356 7 0
2021-09-20 20:01:48 GMT 39.872768 -104.662163 0 0 8 0
2021-09-20 20:01:47 GMT 39.872742 -104.662132 0 5 9 0
2021-09-20 20:01:45 GMT 39.872650 -104.662140 0 3 6 0
2021-09-20 20:01:44 GMT 39.872631 -104.662148 0 359 7 0
2021-09-20 20:01:43 GMT 39.872601 -104.662163 0 356 8 0
2021-09-20 20:01:41 GMT 39.872532 -104.662140 0 3 7 0
2021-09-20 20:01:40 GMT 39.872501 -104.662140 0 1 8 0
2021-09-20 20:01:38 GMT 39.872421 -104.662170 0 352 8 0
2021-09-20 20:01:37 GMT 39.872391 -104.662163 0 356 8 0
2021-09-20 20:01:35 GMT 39.872311 -104.662140 0 8 8 0
2021-09-20 20:01:34 GMT 39.872269 -104.662132 0 9 8 0
2021-09-20 20:01:32 GMT 39.872189 -104.662163 0 1 7 0
2021-09-20 20:01:31 GMT 39.872169 -104.662163 0 1 10 0
2021-09-20 20:01:30 GMT 39.872120 -104.662163 0 0 9 0
2021-09-20 20:01:29 GMT 39.872089 -104.662148 0 3 11 0
2021-09-20 20:01:27 GMT 39.872002 -104.662170 0 358 11 0
2021-09-20 20:01:26 GMT 39.871948 -104.662163 0 2 11 0
2021-09-20 20:01:25 GMT 39.871899 -104.662170 0 355 10 0
2021-09-20 20:01:23 GMT 39.871799 -104.662148 0 8 11 0
2021-09-20 20:01:22 GMT 39.871750 -104.662163 0 2 11 0
2021-09-20 20:01:20 GMT 39.871658 -104.662178 0 359 12 0
2021-09-20 20:01:19 GMT 39.871601 -104.662193 0 356 12 0
2021-09-20 20:01:18 GMT 39.871559 -104.662193 0 356 14 0
2021-09-20 20:01:17 GMT 39.871422 -104.662170 0 1 12 0
2021-09-20 20:01:15 GMT 39.871349 -104.662170 0 3 10 0
2021-09-20 20:01:13 GMT 39.871262 -104.662178 0 1 12 0
2021-09-20 20:01:12 GMT 39.871189 -104.662201 0 353 10 0
2021-09-20 20:01:11 GMT 39.871109 -104.662178 0 2 11 0
2021-09-20 20:01:09 GMT 39.871052 -104.662148 0 11 10 0
2021-09-20 20:01:08 GMT 39.870998 -104.662170 0 6 10 0
2021-09-20 20:01:06 GMT 39.870899 -104.662201 0 0 8 0
2021-09-20 20:01:05 GMT 39.870869 -104.662193 0 357 8 0
2021-09-20 20:01:03 GMT 39.870789 -104.662193 0 2 9 0
2021-09-20 20:01:02 GMT 39.870739 -104.662193 0 357 8 0
2021-09-20 20:01:00 GMT 39.870651 -104.662193 0 0 6 0
2021-09-20 20:00:59 GMT 39.870640 -104.662178 0 358 7 0
2021-09-20 20:00:58 GMT 39.870571 -104.662201 0 351 7 0
2021-09-20 20:00:56 GMT 39.870541 -104.662178 0 354 7 0
2021-09-20 20:00:55 GMT 39.870491 -104.662170 0 359 4 0
2021-09-20 20:00:53 GMT 39.870449 -104.662140 0 17 5 0
2021-09-20 20:00:52 GMT 39.870449 -104.662163 0 5 7 0
2021-09-20 20:00:51 GMT 39.870392 -104.662193 0 357 4 0
2021-09-20 20:00:49 GMT 39.870380 -104.662178 0 357 6 0
2021-09-20 20:00:48 GMT 39.870338 -104.662193 0 358 4 0
2021-09-20 20:00:46 GMT 39.870300 -104.662178 0 359 3 0
2021-09-20 20:00:45 GMT 39.870289 -104.662193 0 355 4 0
2021-09-20 20:00:42 GMT 39.870239 -104.662170 0 357 2 0
2021-09-20 20:00:40 GMT 39.870251 -104.662178 0 0 7 0
2021-09-20 20:00:39 GMT 39.870201 -104.662178 0 2 5 0
2021-09-20 20:00:38 GMT 39.870178 -104.662170 0 3 6 0
2021-09-20 20:00:36 GMT 39.870129 -104.662193 0 353 5 0
2021-09-20 20:00:34 GMT 39.870079 -104.662178 0 4 6 0
2021-09-20 20:00:33 GMT 39.870060 -104.662170 0 7 7 0
2021-09-20 20:00:32 GMT 39.869991 -104.662209 0 346 6 0
2021-09-20 20:00:30 GMT 39.869968 -104.662209 0 346 6 0
2021-09-20 20:00:29 GMT 39.869942 -104.662193 0 354 6 0
2021-09-20 20:00:27 GMT 39.869900 -104.662170 0 5 9 0
2021-09-20 20:00:26 GMT 39.869839 -104.662178 0 0 7 0
2021-09-20 20:00:24 GMT 39.869789 -104.662201 0 353 7 0
2021-09-20 20:00:22 GMT 39.869720 -104.662170 0 5 10 0
2021-09-20 20:00:21 GMT 39.869678 -104.662178 0 5 11 0
2021-09-20 20:00:19 GMT 39.869560 -104.662193 0 4 8 0
2021-09-20 20:00:18 GMT 39.869518 -104.662209 0 0 7 0
2021-09-20 20:00:16 GMT 39.869461 -104.662201 0 4 7 0
2021-09-20 20:00:15 GMT 39.869450 -104.662201 0 3 11 0
2021-09-20 20:00:13 GMT 39.869350 -104.662239 0 349 10 0
2021-09-20 20:00:12 GMT 39.869301 -104.662216 0 353 8 0
2021-09-20 20:00:11 GMT 39.869259 -104.662193 0 354 9 0
2021-09-20 20:00:09 GMT 39.869190 -104.662163 0 7 12 0
2021-09-20 20:00:08 GMT 39.869091 -104.662193 0 4 11 0
2021-09-20 20:00:05 GMT 39.868999 -104.662201 0 359 13 0
2021-09-20 20:00:04 GMT 39.868938 -104.662209 0 359 12 0
2021-09-20 20:00:03 GMT 39.868809 -104.662201 0 359 11 0
2021-09-20 20:00:01 GMT 39.868771 -104.662193 0 359 12 0
2021-09-20 20:00:00 GMT 39.868710 -104.662193 0 0 10 0
2021-09-20 19:59:59 GMT 39.868610 -104.662193 0 2 11 0
2021-09-20 19:59:57 GMT 39.868561 -104.662193 0 4 13 0
2021-09-20 19:59:56 GMT 39.868431 -104.662216 0 351 12 0
We lost coverage of the aircraft here for a total of 137 minutes
2021-09-20 17:43:00 GMT 39.855751 -104.669479 0 266 6 -64
2021-09-20 17:42:59 GMT 39.855751 -104.669441 0 266 6 -64
2021-09-20 17:42:57 GMT 39.855789 -104.669388 0 268 8 -64
2021-09-20 17:42:55 GMT 39.855801 -104.669434 0 268 12 -64
2021-09-20 17:42:54 GMT 39.855808 -104.669296 0 268 13 -64
2021-09-20 17:42:52 GMT 39.855789 -104.669281 0 263 16 -64
2021-09-20 17:42:50 GMT 39.855801 -104.669090 0 262 16 -64
2021-09-20 17:42:49 GMT 39.855801 -104.668983 0 257 16 -64
2021-09-20 17:42:47 GMT 39.855831 -104.668800 0 261 15 -64
2021-09-20 17:42:45 GMT 39.855888 -104.668541 0 274 18 -64
2021-09-20 17:42:43 GMT 39.855869 -104.668449 0 270 20 -64
2021-09-20 17:42:42 GMT 39.855869 -104.668221 0 269 21 -64
2021-09-20 17:42:40 GMT 39.855869 -104.668083 0 269 20 -64
2021-09-20 17:42:39 GMT 39.855862 -104.667831 0 268 19 -64
2021-09-20 17:42:37 GMT 39.855888 -104.667717 0 275 20 -64
2021-09-20 17:42:36 GMT 39.855900 -104.667580 0 281 18 -64
2021-09-20 17:42:34 GMT 39.855839 -104.667374 0 267 20 -64
2021-09-20 17:42:33 GMT 39.855831 -104.667252 0 266 21 -64
2021-09-20 17:42:31 GMT 39.855850 -104.666992 0 266 19 -64
2021-09-20 17:42:30 GMT 39.855881 -104.666878 0 273 19 -64
2021-09-20 17:42:29 GMT 39.855862 -104.666618 0 271 17 -64
2021-09-20 17:42:27 GMT 39.855881 -104.666550 0 276 20 -64
2021-09-20 17:42:25 GMT 39.855850 -104.666328 0 274 22 -64
2021-09-20 17:42:24 GMT 39.855839 -104.666222 0 273 24 -64
2021-09-20 17:42:23 GMT 39.855820 -104.666061 0 270 22 -64
2021-09-20 17:42:21 GMT 39.855820 -104.665756 0 267 17 -64
2021-09-20 17:42:20 GMT 39.855831 -104.665657 0 269 17 -64
2021-09-20 17:42:18 GMT 39.855831 -104.665459 0 267 21 -64
2021-09-20 17:42:17 GMT 39.855839 -104.665321 0 269 20 -64
2021-09-20 17:42:15 GMT 39.855839 -104.665092 0 270 21 -64
2021-09-20 17:42:14 GMT 39.855839 -104.664948 0 271 20 -64
2021-09-20 17:42:13 GMT 39.855839 -104.664688 0 271 20 -64
2021-09-20 17:42:11 GMT 39.855831 -104.664574 0 269 19 -64
2021-09-20 17:42:10 GMT 39.855831 -104.664452 0 267 18 -64
2021-09-20 17:42:08 GMT 39.855850 -104.664230 0 272 19 -64
2021-09-20 17:42:07 GMT 39.855839 -104.663986 0 273 17 -64
2021-09-20 17:42:05 GMT 39.855820 -104.663872 0 268 16 -64
2021-09-20 17:42:04 GMT 39.855820 -104.663673 0 270 17 -64
2021-09-20 17:42:02 GMT 39.855808 -104.663582 0 267 17 -64
2021-09-20 17:42:01 GMT 39.855831 -104.663368 0 270 17 -64
2021-09-20 17:41:59 GMT 39.855820 -104.663261 0 265 17 -64
2021-09-20 17:41:58 GMT 39.855820 -104.663071 0 270 17 -64
2021-09-20 17:41:56 GMT 39.855808 -104.662971 0 273 15 -64
2021-09-20 17:41:55 GMT 39.855820 -104.662872 0 282 14 -64
2021-09-20 17:41:53 GMT 39.855801 -104.662682 0 305 13 -64
2021-09-20 17:41:52 GMT 39.855782 -104.662613 0 313 12 -64
2021-09-20 17:41:50 GMT 39.855701 -104.662468 0 335 12 -64
2021-09-20 17:41:49 GMT 39.855671 -104.662437 0 340 13 -64
2021-09-20 17:41:48 GMT 39.855560 -104.662369 0 350 14 -64
2021-09-20 17:41:46 GMT 39.855499 -104.662300 0 8 15 -64
2021-09-20 17:41:44 GMT 39.855358 -104.662331 0 5 16 -64
2021-09-20 17:41:43 GMT 39.855289 -104.662338 0 4 17 -64
2021-09-20 17:41:42 GMT 39.855209 -104.662354 0 2 18 -64
2021-09-20 17:41:40 GMT 39.855061 -104.662361 0 2 20 -64
2021-09-20 17:41:39 GMT 39.854961 -104.662376 0 358 19 -64
2021-09-20 17:41:37 GMT 39.854790 -104.662361 0 0 22 -64
2021-09-20 17:41:36 GMT 39.854698 -104.662369 0 357 23 -64
2021-09-20 17:41:34 GMT 39.854481 -104.662369 0 348 21 -64
2021-09-20 17:41:33 GMT 39.854382 -104.662361 0 343 21 -64
2021-09-20 17:41:32 GMT 39.854210 -104.662262 0 350 23 -64
2021-09-20 17:41:31 GMT 39.854092 -104.662270 0 342 22 -64
2021-09-20 17:41:29 GMT 39.853989 -104.662216 0 344 21 -64
2021-09-20 17:41:28 GMT 39.853790 -104.662163 0 334 19 -64
2021-09-20 17:41:26 GMT 39.853710 -104.662109 0 332 19 -64
2021-09-20 17:41:25 GMT 39.853619 -104.662079 0 326 20 -64
2021-09-20 17:41:23 GMT 39.853470 -104.661926 0 331 21 -64
2021-09-20 17:41:22 GMT 39.853401 -104.661842 0 340 21 -64
2021-09-20 17:41:21 GMT 39.853291 -104.661842 0 325 20 -64
2021-09-20 17:41:19 GMT 39.853130 -104.661713 0 327 19 -64
2021-09-20 17:41:17 GMT 39.853001 -104.661591 0 330 23 -64
2021-09-20 17:41:16 GMT 39.852871 -104.661537 0 319 18 -64
2021-09-20 17:41:14 GMT 39.852741 -104.661369 0 335 17 -64
2021-09-20 17:41:13 GMT 39.852669 -104.661339 0 334 17 -64
2021-09-20 17:41:11 GMT 39.852520 -104.661270 0 333 17 -64
2021-09-20 17:41:10 GMT 39.852451 -104.661240 0 328 19 -64
2021-09-20 17:41:09 GMT 39.852360 -104.661186 0 323 17 -64
2021-09-20 17:41:08 GMT 39.852291 -104.661133 0 319 16 -64
2021-09-20 17:41:06 GMT 39.852169 -104.661034 0 313 16 -64
2021-09-20 17:41:05 GMT 39.852058 -104.660889 0 305 15 -64
2021-09-20 17:41:03 GMT 39.851990 -104.660828 0 296 15 -64
2021-09-20 17:41:02 GMT 39.851898 -104.660683 0 292 14 -64
2021-09-20 17:41:00 GMT 39.851891 -104.660583 0 306 12 -64
2021-09-20 17:40:59 GMT 39.851810 -104.660461 5,175 316 11 224
2021-09-20 17:40:57 GMT 39.851749 -104.660423 5,175 325 10 224
2021-09-20 17:40:55 GMT 39.851662 -104.660301 5,175 357 10 224
2021-09-20 17:40:54 GMT 39.851608 -104.660248 5,175 2 12 224
2021-09-20 17:40:53 GMT 39.851559 -104.660263 5,175 2 16 224
2021-09-20 17:40:52 GMT 39.851471 -104.660316 5,175 350 18 -608
2021-09-20 17:40:50 GMT 39.851318 -104.660210 5,175 5 29 -608
2021-09-20 17:40:48 GMT 39.851040 -104.660271 5,175 1 35 -608
2021-09-20 17:40:47 GMT 39.850891 -104.660278 5,175 1 41 128
2021-09-20 17:40:46 GMT 39.850529 -104.660309 5,175 358 50 128
2021-09-20 17:40:44 GMT 39.850319 -104.660278 5,175 359 54 128
2021-09-20 17:40:42 GMT 39.849831 -104.660294 5,150 359 66 -32
2021-09-20 17:40:41 GMT 39.849541 -104.660301 5,150 359 70 -32
2021-09-20 17:40:40 GMT 39.849220 -104.660294 5,150 359 73 -32
2021-09-20 17:40:38 GMT 39.848560 -104.660301 5,150 359 81 256
2021-09-20 17:40:36 GMT 39.847790 -104.660271 5,150 0 87 256
2021-09-20 17:40:35 GMT 39.847408 -104.660271 5,150 1 91 256
2021-09-20 17:40:33 GMT 39.846611 -104.660301 5,150 0 102 -1184
2021-09-20 17:40:31 GMT 39.845699 -104.660332 5,175 359 109 -32
2021-09-20 17:40:30 GMT 39.845188 -104.660347 5,175 359 110 -32
2021-09-20 17:40:28 GMT 39.844151 -104.660332 5,175 0 113 -32
2021-09-20 17:40:27 GMT 39.843632 -104.660339 5,175 0 116 -32
2021-09-20 17:40:26 GMT 39.843109 -104.660316 5,175 1 120 -32
2021-09-20 17:40:24 GMT 39.842010 -104.660347 5,175 0 127 -32
2021-09-20 17:40:23 GMT 39.841419 -104.660370 5,175 0 129 -992
2021-09-20 17:40:21 GMT 39.840240 -104.660378 5,175 0 135 -992
2021-09-20 17:40:20 GMT 39.839619 -104.660393 5,175 0 137 -992
2021-09-20 17:40:18 GMT 39.838379 -104.660439 5,175 359 142 -992
2021-09-20 17:40:17 GMT 39.837700 -104.660423 5,175 0 140 -992
2021-09-20 17:40:16 GMT 39.837040 -104.660431 5,175 0 142 -992
2021-09-20 17:40:14 GMT 39.835751 -104.660431 5,175 1 147 192
2021-09-20 17:40:13 GMT 39.835072 -104.660439 5,200 1 148 192
2021-09-20 17:40:11 GMT 39.833710 -104.660469 5,200 1 151 -1056
2021-09-20 17:40:10 GMT 39.833031 -104.660500 5,300 0 156 -1056
2021-09-20 17:40:09 GMT 39.832298 -104.660522 5,300 0 154 -1056
2021-09-20 17:40:07 GMT 39.830879 -104.660507 5,300 0 157 -1056
2021-09-20 17:40:06 GMT 39.830139 -104.660538 5,300 0 156 -1056
2021-09-20 17:40:04 GMT 39.828678 -104.660538 5,300 1 156 -1056
2021-09-20 17:40:03 GMT 39.827930 -104.660561 5,300 0 152 -1056
2021-09-20 17:40:02 GMT 39.826550 -104.660568 5,300 0 156 -1056
2021-09-20 17:40:00 GMT 39.825790 -104.660538 5,350 2 150 -1056
2021-09-20 17:39:59 GMT 39.825119 -104.660568 5,350 2 157 -1056
2021-09-20 17:39:58 GMT 39.823681 -104.660622 5,350 1 153 -1056
2021-09-20 17:39:56 GMT 39.822971 -104.660660 5,400 0 152 -1056
2021-09-20 17:39:55 GMT 39.821571 -104.660660 5,400 0 153 -1056
2021-09-20 17:39:53 GMT 39.820820 -104.660683 5,400 359 146 -1056
2021-09-20 17:39:52 GMT 39.819462 -104.660683 5,450 1 150 -1056
2021-09-20 17:39:51 GMT 39.818748 -104.660698 5,500 0 147 -1056
2021-09-20 17:39:49 GMT 39.818069 -104.660713 5,500 0 149 -1056
2021-09-20 17:39:48 GMT 39.817379 -104.660721 5,500 1 150 -1056
2021-09-20 17:39:46 GMT 39.815941 -104.660789 5,525 359 151 -1056
2021-09-20 17:39:44 GMT 39.814571 -104.660789 5,550 0 156 -1056
2021-09-20 17:39:43 GMT 39.813160 -104.660789 5,575 1 159 -1056
2021-09-20 17:39:41 GMT 39.812382 -104.660828 5,575 0 150 -1056
2021-09-20 17:39:39 GMT 39.810989 -104.660820 5,600 1 158 -1056
2021-09-20 17:39:38 GMT 39.809509 -104.660881 5,700 359 152 -1056
2021-09-20 17:39:37 GMT 39.808842 -104.660851 5,700 359 157 -1056
2021-09-20 17:39:35 GMT 39.807339 -104.660881 5,700 359 154 -1056
2021-09-20 17:39:34 GMT 39.806660 -104.660881 5,700 359 158 -1056
2021-09-20 17:39:32 GMT 39.805908 -104.660851 5,700 0 156 -1056
2021-09-20 17:39:31 GMT 39.805199 -104.660828 5,700 1 156 -1056
2021-09-20 17:39:30 GMT 39.803741 -104.660919 5,725 358 153 -1056
2021-09-20 17:39:28 GMT 39.803051 -104.660896 5,725 358 154 -1056
2021-09-20 17:39:27 GMT 39.802349 -104.660858 5,725 359 156 -1056
2021-09-20 17:39:25 GMT 39.800900 -104.660843 5,800 1 151 -1056
2021-09-20 17:39:24 GMT 39.800259 -104.660873 5,750 0 158 -1056
2021-09-20 17:39:23 GMT 39.798790 -104.660858 5,900 1 155 -128
2021-09-20 17:39:21 GMT 39.797371 -104.660919 5,900 359 155 -128
2021-09-20 17:39:19 GMT 39.795891 -104.660927 5,900 0 149 -128
2021-09-20 17:39:17 GMT 39.795212 -104.660927 5,900 1 154 -128
2021-09-20 17:39:16 GMT 39.794479 -104.660919 5,900 3 152 -128
2021-09-20 17:39:14 GMT 39.793049 -104.661018 5,900 0 149 -128
2021-09-20 17:39:13 GMT 39.792332 -104.660980 5,900 2 148 -128
2021-09-20 17:39:12 GMT 39.790958 -104.661072 5,900 1 152 -128
2021-09-20 17:39:10 GMT 39.790310 -104.661079 5,950 1 158 -128
2021-09-20 17:39:09 GMT 39.788769 -104.661133 6,100 359 165 -128
2021-09-20 17:39:00 GMT 39.783463 -104.661255 6,075 0 155 -832
2021-09-20 17:38:57 GMT 39.780945 -104.661255 6,125 0 156 -1024
2021-09-20 17:38:52 GMT 39.776978 -104.661255 6,200 0 156 -768
2021-09-20 17:38:47 GMT 39.773113 -104.661316 6,250 0 156 -896
2021-09-20 17:38:40 GMT 39.768585 -104.661377 6,350 1 155 -768
2021-09-20 17:38:36 GMT 39.765701 -104.661430 6,425 1 153 -896
2021-09-20 17:38:33 GMT 39.764008 -104.661491 6,425 1 153 -896
2021-09-20 17:38:30 GMT 39.759617 -104.661621 6,550 0 156 -960
2021-09-20 17:38:25 GMT 39.757095 -104.661613 6,600 0 156 -896
2021-09-20 17:38:21 GMT 39.755356 -104.661613 6,625 0 157 -832
2021-09-20 17:38:16 GMT 39.750641 -104.661491 6,700 0 156 -768
2021-09-20 17:38:13 GMT 39.749607 -104.661499 6,725 1 157 -1216
2021-09-20 17:38:05 GMT 39.743462 -104.661499 6,775 0 156 -448
2021-09-20 17:38:02 GMT 39.741623 -104.661552 6,800 0 157 -448
2021-09-20 17:37:55 GMT 39.735874 -104.661682 6,875 1 155 -768
2021-09-20 17:37:51 GMT 39.733871 -104.661743 6,900 1 157 -832
2021-09-20 17:37:45 GMT 39.729168 -104.661926 7,000 1 158 -704
2021-09-20 17:37:42 GMT 39.726284 -104.661987 7,075 1 158 -1216
2021-09-20 17:37:39 GMT 39.724468 -104.661987 7,150 0 157 -1280
2021-09-20 17:37:36 GMT 39.722031 -104.662033 7,200 0 157 -1408
2021-09-20 17:37:33 GMT 39.720200 -104.662094 7,225 0 157 -896
2021-09-20 17:37:30 GMT 39.718044 -104.662109 7,275 1 156 -768
2021-09-20 17:37:24 GMT 39.712921 -104.662209 7,375 0 156 -768
2021-09-20 17:37:21 GMT 39.711182 -104.662148 7,400 0 164 -1024
2021-09-20 17:37:16 GMT 39.708252 -104.662148 7,450 0 159 -832
2021-09-20 17:37:13 GMT 39.705597 -104.662209 7,500 0 163 -1088
2021-09-20 17:37:10 GMT 39.701424 -104.662231 7,575 0 166 -960
2021-09-20 17:37:07 GMT 39.701424 -104.662231 7,675 0 169 -896
2021-09-20 17:37:02 GMT 39.697540 -104.662209 7,650 0 169 -896
2021-09-20 17:36:58 GMT 39.693279 -104.662231 7,750 0 171 -1088
2021-09-20 17:36:55 GMT 39.691177 -104.662209 7,800 0 173 -768
2021-09-20 17:36:52 GMT 39.688934 -104.662209 7,825 0 174 -768
2021-09-20 17:36:48 GMT 39.686646 -104.662209 7,850 0 177 -704
2021-09-20 17:36:44 GMT 39.682850 -104.662231 7,900 0 180 -576
2021-09-20 17:36:41 GMT 39.680649 -104.662270 7,925 0 183 -832
2021-09-20 17:36:36 GMT 39.675522 -104.662392 8,050 1 187 -1152
2021-09-20 17:36:32 GMT 39.671677 -104.662506 8,150 0 188 -1152
2021-09-20 17:36:27 GMT 39.667301 -104.662537 8,300 0 193 -1344
2021-09-20 17:36:24 GMT 39.665115 -104.662537 8,300 0 194 -1344
2021-09-20 17:36:20 GMT 39.662228 -104.662537 8,375 0 196 -1408
2021-09-20 17:36:16 GMT 39.657349 -104.662567 8,500 0 199 -2048
2021-09-20 17:36:11 GMT 39.652817 -104.662506 8,650 0 200 -2112
2021-09-20 17:36:06 GMT 39.647888 -104.662415 8,825 0 201 -1792
2021-09-20 17:36:03 GMT 39.644669 -104.662453 8,900 0 201 -1856
2021-09-20 17:36:00 GMT 39.643326 -104.662476 8,975 0 202 -1664
2021-09-20 17:35:53 GMT 39.636112 -104.662659 9,150 2 208 -1536
2021-09-20 17:35:50 GMT 39.633591 -104.662865 9,275 5 213 -1472
2021-09-20 17:35:47 GMT 39.630665 -104.663147 9,350 8 217 -1152
2021-09-20 17:35:42 GMT 39.626381 -104.663818 9,375 8 217 -1152
2021-09-20 17:35:39 GMT 39.620705 -104.664978 9,500 6 229 -832
2021-09-20 17:35:35 GMT 39.617863 -104.665527 9,500 8 224 -832
2021-09-20 17:35:31 GMT 39.614979 -104.666077 9,525 7 226 -704
2021-09-20 17:35:28 GMT 39.610321 -104.666687 9,775 2 232 -1280
2021-09-20 17:35:25 GMT 39.607956 -104.666809 9,725 0 235 -2112
2021-09-20 17:35:21 GMT 39.604691 -104.666809 10,975 331 246 -2752
2021-09-20 17:35:18 GMT 39.599213 -104.666031 10,125 351 237 -3456
2021-09-20 17:35:15 GMT 39.597061 -104.665436 10,175 347 237 -3392
2021-09-20 17:35:11 GMT 39.593765 -104.664238 10,325 343 239 -3136
2021-09-20 17:35:07 GMT 39.588394 -104.661682 10,575 334 242 -2816
2021-09-20 17:35:04 GMT 39.586212 -104.660301 10,825 332 244 -2880
2021-09-20 17:35:01 GMT 39.583328 -104.658386 10,825 332 245 -2816
2021-09-20 17:34:58 GMT 39.579922 -104.655945 10,975 331 248 -2752
2021-09-20 17:34:54 GMT 39.576012 -104.653015 11,375 329 255 -1728
2021-09-20 17:34:51 GMT 39.573219 -104.650818 11,250 329 258 -1664
2021-09-20 17:34:48 GMT 39.565109 -104.644356 11,325 329 260 -1728
2021-09-20 17:34:44 GMT 39.562000 -104.641907 11,500 329 262 -1216
2021-09-20 17:34:40 GMT 39.562000 -104.641907 11,500 329 263 -1152
2021-09-20 17:34:37 GMT 39.558884 -104.639404 11,525 329 265 -768
2021-09-20 17:34:33 GMT 39.554672 -104.636116 11,750 326 266 -1152
2021-09-20 17:34:30 GMT 39.550781 -104.633057 11,725 329 264 -1472
2021-09-20 17:34:27 GMT 39.548813 -104.631523 11,775 329 264 -1280
2021-09-20 17:34:24 GMT 39.544739 -104.628174 11,850 327 265 -832
2021-09-20 17:34:21 GMT 39.541565 -104.625549 11,875 326 265 -1024
2021-09-20 17:34:18 GMT 39.539143 -104.623352 11,975 325 266 -1152
2021-09-20 17:34:15 GMT 39.536636 -104.621071 12,025 325 269 -448
2021-09-20 17:34:12 GMT 39.532764 -104.617554 12,025 325 269 -448
2021-09-20 17:34:08 GMT 39.528397 -104.613609 12,050 325 272 -832
2021-09-20 17:34:05 GMT 39.525925 -104.611336 12,100 326 274 -832
2021-09-20 17:34:01 GMT 39.521591 -104.607483 12,175 328 277 -768
2021-09-20 17:33:57 GMT 39.516705 -104.603516 12,200 331 282 -896
2021-09-20 17:33:54 GMT 39.514469 -104.601807 12,250 331 282 -960
2021-09-20 17:33:51 GMT 39.509125 -104.598145 12,325 334 286 -1088
2021-09-20 17:33:44 GMT 39.501389 -104.593483 12,400 337 291 -704
2021-09-20 17:33:39 GMT 39.495850 -104.590561 12,450 340 296 -448
2021-09-20 17:33:34 GMT 39.488773 -104.587585 12,500 347 304 -448
2021-09-20 17:33:29 GMT 39.482071 -104.586060 12,525 355 311 -320
2021-09-20 17:33:25 GMT 39.476532 -104.585724 12,550 7 326 -320
2021-09-20 17:33:22 GMT 39.470291 -104.586304 12,550 7 326 -320
2021-09-20 17:33:19 GMT 39.468201 -104.586739 12,575 9 327 -320
2021-09-20 17:33:16 GMT 39.463264 -104.588196 12,600 18 336 -448
2021-09-20 17:33:13 GMT 39.457165 -104.590881 12,625 21 340 -512
2021-09-20 17:33:10 GMT 39.453766 -104.592896 12,675 27 345 -576
2021-09-20 17:33:06 GMT 39.447018 -104.597961 12,700 34 350 -1152
2021-09-20 17:33:03 GMT 39.444122 -104.600655 12,775 39 353 -1536
2021-09-20 17:33:00 GMT 39.439636 -104.605606 12,850 43 355 -1664
2021-09-20 17:32:55 GMT 39.434074 -104.613342 13,425 70 362 -1920
2021-09-20 17:32:52 GMT 39.431122 -104.618507 13,075 58 360 -1728
2021-09-20 17:32:47 GMT 39.426765 -104.627991 13,225 66 362 -1920
2021-09-20 17:32:44 GMT 39.425308 -104.632118 13,425 70 362 -1920
2021-09-20 17:32:41 GMT 39.423229 -104.639221 13,400 73 363 -1920
2021-09-20 17:32:37 GMT 39.421646 -104.646790 13,450 76 363 -1920
2021-09-20 17:32:34 GMT 39.420547 -104.654922 13,650 82 363 -1920
2021-09-20 17:32:30 GMT 39.420090 -104.661674 13,800 88 364 -1920
2021-09-20 17:32:26 GMT 39.419922 -104.670776 13,875 89 364 -1920
2021-09-20 17:32:23 GMT 39.419876 -104.677979 13,975 91 364 -1600
2021-09-20 17:32:20 GMT 39.419968 -104.685608 14,050 91 364 -1600
2021-09-20 17:32:17 GMT 39.420090 -104.689674 14,125 93 364 -1536
2021-09-20 17:32:14 GMT 39.420685 -104.697319 14,200 100 363 -1664
2021-09-20 17:32:11 GMT 39.421318 -104.702209 14,400 107 360 -1920
2021-09-20 17:32:07 GMT 39.423695 -104.713013 14,425 109 360 -1984
2021-09-20 17:32:03 GMT 39.425537 -104.718933 14,525 114 357 -2048
2021-09-20 17:32:00 GMT 39.428116 -104.725464 14,625 120 354 -1664
2021-09-20 17:31:56 GMT 39.431076 -104.731590 14,700 124 352 -1152
2021-09-20 17:31:53 GMT 39.435059 -104.738335 14,775 130 350 -640
2021-09-20 17:31:50 GMT 39.437210 -104.741440 14,775 134 349 -256
2021-09-20 17:31:47 GMT 39.441570 -104.747009 14,800 139 347 -64
2021-09-20 17:31:43 GMT 39.447327 -104.752968 14,800 143 345 0
2021-09-20 17:31:40 GMT 39.450741 -104.756226 14,800 144 345 64
2021-09-20 17:31:36 GMT 39.455154 -104.760368 14,800 143 346 128
2021-09-20 17:31:33 GMT 39.458469 -104.763489 14,800 143 347 64
2021-09-20 17:31:29 GMT 39.463776 -104.768494 14,800 143 349 0
2021-09-20 17:31:26 GMT 39.471642 -104.776001 14,800 143 349 0
2021-09-20 17:31:23 GMT 39.471642 -104.776001 14,800 143 350 64
2021-09-20 17:31:19 GMT 39.477585 -104.781685 14,800 143 351 0
2021-09-20 17:31:16 GMT 39.482117 -104.786011 14,800 143 351 -128
2021-09-20 17:31:13 GMT 39.485237 -104.789062 14,800 143 351 -128
2021-09-20 17:31:08 GMT 39.491474 -104.794983 14,800 143 349 64
2021-09-20 17:31:05 GMT 39.496536 -104.799835 14,800 143 349 128
2021-09-20 17:31:00 GMT 39.502972 -104.805969 14,800 143 349 64
2021-09-20 17:30:56 GMT 39.507523 -104.810287 14,800 143 349 64
2021-09-20 17:30:52 GMT 39.512005 -104.814453 14,800 144 349 -64
2021-09-20 17:30:48 GMT 39.517822 -104.819946 14,800 144 350 -64
2021-09-20 17:30:45 GMT 39.523911 -104.825569 14,800 144 350 -64
2021-09-20 17:30:42 GMT 39.525223 -104.826843 14,800 144 350 128
2021-09-20 17:30:38 GMT 39.531555 -104.832764 14,800 144 350 -64
2021-09-20 17:30:35 GMT 39.533478 -104.834526 14,800 143 350 -128
2021-09-20 17:30:32 GMT 39.538788 -104.839546 14,825 143 349 -640
2021-09-20 17:30:28 GMT 39.546204 -104.846527 14,925 144 348 -1472
2021-09-20 17:30:25 GMT 39.554764 -104.854355 15,025 144 348 -1024
2021-09-20 17:30:20 GMT 39.554764 -104.854355 15,050 145 348 -576
2021-09-20 17:30:17 GMT 39.557205 -104.856567 15,050 146 348 256
2021-09-20 17:30:14 GMT 39.567398 -104.864983 15,025 148 347 896
2021-09-20 17:30:08 GMT 39.574383 -104.870300 14,825 150 344 1920
2021-09-20 17:30:05 GMT 39.574383 -104.870300 14,800 150 345 1920
2021-09-20 17:30:01 GMT 39.581181 -104.875061 14,650 151 344 1984
2021-09-20 17:29:56 GMT 39.585938 -104.878471 14,550 151 343 1920
2021-09-20 17:29:53 GMT 39.591328 -104.882263 14,350 151 341 1984
2021-09-20 17:29:50 GMT 39.594910 -104.884804 14,275 151 340 1984
2021-09-20 17:29:47 GMT 39.600494 -104.888741 14,150 152 339 2048
2021-09-20 17:29:44 GMT 39.603333 -104.890656 14,100 153 339 2048
2021-09-20 17:29:41 GMT 39.607761 -104.893616 13,850 155 336 1728
2021-09-20 17:29:38 GMT 39.613129 -104.896927 13,875 156 334 1792
2021-09-20 17:29:35 GMT 39.616608 -104.898895 13,800 157 333 1856
2021-09-20 17:29:32 GMT 39.620842 -104.901245 13,700 158 332 2048
2021-09-20 17:29:29 GMT 39.628784 -104.905106 13,550 162 330 2432
2021-09-20 17:29:26 GMT 39.629974 -104.905640 13,450 161 330 2368
2021-09-20 17:29:23 GMT 39.634899 -104.907776 13,275 163 329 2624
2021-09-20 17:29:20 GMT 39.637833 -104.908936 13,250 163 328 2688
2021-09-20 17:29:17 GMT 39.642723 -104.910767 13,050 165 329 2944
2021-09-20 17:29:14 GMT 39.652126 -104.913757 12,925 166 328 3008
2021-09-20 17:29:11 GMT 39.652126 -104.913757 12,825 167 329 3200
2021-09-20 17:29:08 GMT 39.655197 -104.914673 12,300 167 329 3264
2021-09-20 17:29:05 GMT 39.660740 -104.916199 12,500 167 331 3392
2021-09-20 17:29:01 GMT 39.667442 -104.918091 12,250 167 333 3200
2021-09-20 17:28:58 GMT 39.672043 -104.919312 12,100 167 334 2944
2021-09-20 17:28:55 GMT 39.677582 -104.920868 11,925 167 335 2816
2021-09-20 17:28:52 GMT 39.681244 -104.921883 11,825 167 336 2752
2021-09-20 17:28:49 GMT 39.685921 -104.923096 11,525 170 336 2560
2021-09-20 17:28:45 GMT 39.691509 -104.924316 11,500 172 335 2432
2021-09-20 17:28:41 GMT 39.695839 -104.924988 11,425 174 335 2368
2021-09-20 17:28:38 GMT 39.701797 -104.925522 11,275 196 324 1280
2021-09-20 17:28:33 GMT 39.710129 -104.925232 11,025 187 328 2176
2021-09-20 17:28:19 GMT 39.746979 -104.943047 9,800 232 293 160
2021-09-20 17:28:18 GMT 39.747849 -104.941704 9,800 232 293 160
2021-09-20 17:28:17 GMT 39.749580 -104.939003 9,800 232 293 160
2021-09-20 17:28:15 GMT 39.750450 -104.937653 9,800 232 293 160
2021-09-20 17:28:14 GMT 39.751320 -104.936302 9,800 232 293 160
2021-09-20 17:28:12 GMT 39.753052 -104.933609 9,800 232 293 160
2021-09-20 17:28:11 GMT 39.753922 -104.932259 9,800 232 293 160
2021-09-20 17:28:10 GMT 39.754780 -104.930908 9,800 232 293 160
2021-09-20 17:28:09 GMT 39.756519 -104.928207 9,800 232 293 160
2021-09-20 17:28:07 GMT 39.757389 -104.926857 9,800 232 293 160
2021-09-20 17:28:06 GMT 39.759121 -104.924156 9,800 232 293 160
2021-09-20 17:28:04 GMT 39.759991 -104.922813 9,800 232 293 160
2021-09-20 17:28:03 GMT 39.761719 -104.920113 9,800 232 293 160
2021-09-20 17:28:01 GMT 39.762581 -104.918762 9,800 232 293 160
2021-09-20 17:28:00 GMT 39.764320 -104.916061 9,800 232 293 160
2021-09-20 17:27:58 GMT 39.765179 -104.914711 9,800 232 293 160
2021-09-20 17:27:57 GMT 39.766048 -104.913361 9,800 232 293 160
2021-09-20 17:27:55 GMT 39.767780 -104.910660 9,800 232 293 160
2021-09-20 17:27:53 GMT 39.769520 -104.907959 9,800 232 293 160
2021-09-20 17:27:52 GMT 39.770378 -104.906609 9,800 232 293 160
2021-09-20 17:27:51 GMT 39.772121 -104.903908 9,800 232 293 160
2021-09-20 17:27:49 GMT 39.772980 -104.902557 9,800 232 293 160
2021-09-20 17:27:47 GMT 39.775600 -104.900574 9,700 238 286 160
2021-09-20 17:27:46 GMT 39.776329 -104.899139 9,700 238 286 160
2021-09-20 17:27:44 GMT 39.777802 -104.896278 9,700 238 286 160
2021-09-20 17:27:43 GMT 39.780251 -104.893272 9,700 241 262 160
2021-09-20 17:27:41 GMT 39.780842 -104.891891 9,700 241 262 160
2021-09-20 17:27:40 GMT 39.781422 -104.890511 9,700 241 262 160
2021-09-20 17:27:38 GMT 39.782822 -104.887718 9,600 241 261 -32
2021-09-20 17:27:36 GMT 39.783958 -104.884956 9,600 241 261 -32
2021-09-20 17:27:35 GMT 39.784531 -104.883583 9,600 241 261 -32
2021-09-20 17:27:33 GMT 39.785721 -104.880478 9,600 241 251 640
2021-09-20 17:27:31 GMT 39.786819 -104.877831 9,600 241 251 640
2021-09-20 17:27:30 GMT 39.787380 -104.876511 9,600 241 251 640
2021-09-20 17:27:28 GMT 39.788601 -104.873451 9,500 241 244 640
2021-09-20 17:27:27 GMT 39.789139 -104.872162 9,500 241 244 640
2021-09-20 17:27:26 GMT 39.789680 -104.870880 9,500 241 244 640
2021-09-20 17:27:24 GMT 39.790741 -104.868073 9,500 241 241 1792
2021-09-20 17:27:23 GMT 39.791821 -104.865540 9,500 241 241 1792
2021-09-20 17:27:21 GMT 39.792358 -104.864281 9,500 241 241 1792
2021-09-20 17:27:19 GMT 39.793499 -104.861458 9,300 240 236 1792
2021-09-20 17:27:18 GMT 39.794029 -104.860222 9,300 240 236 1792
2021-09-20 17:27:17 GMT 39.794559 -104.858994 9,300 240 236 1792
2021-09-20 17:27:15 GMT 39.795540 -104.856468 9,300 240 236 1792
2021-09-20 17:27:14 GMT 39.796082 -104.855240 9,300 240 236 1792
2021-09-20 17:27:12 GMT 39.797150 -104.852768 9,300 240 236 1792
2021-09-20 17:27:11 GMT 39.797741 -104.851433 9,100 240 234 1792
2021-09-20 17:27:09 GMT 39.798809 -104.848991 9,100 240 234 1792
2021-09-20 17:27:08 GMT 39.799339 -104.847763 9,100 240 234 1792
2021-09-20 17:27:07 GMT 39.799870 -104.846542 9,100 240 234 1792
2021-09-20 17:27:05 GMT 39.800838 -104.844063 8,700 240 235 1792
2021-09-20 17:27:04 GMT 39.801380 -104.842842 8,700 240 235 1792
2021-09-20 17:27:03 GMT 39.801922 -104.841614 8,700 240 235 1792
2021-09-20 17:27:00 GMT 39.803619 -104.837784 8,700 240 232 1792
2021-09-20 17:26:59 GMT 39.804150 -104.836571 8,700 240 232 1792
2021-09-20 17:26:58 GMT 39.804691 -104.835373 8,700 240 232 1792
2021-09-20 17:26:56 GMT 39.805790 -104.832809 8,500 240 229 1792
2021-09-20 17:26:55 GMT 39.806839 -104.830429 8,500 240 229 1792
2021-09-20 17:26:53 GMT 39.807369 -104.829231 8,500 240 229 1792
2021-09-20 17:26:52 GMT 39.808022 -104.827560 8,100 239 220 1792
2021-09-20 17:26:50 GMT 39.809052 -104.825287 8,100 239 220 1792
2021-09-20 17:26:49 GMT 39.809559 -104.824150 8,100 239 220 1792
2021-09-20 17:26:47 GMT 39.810532 -104.821991 8,100 239 229 1792
2021-09-20 17:26:46 GMT 39.811600 -104.819618 8,100 239 229 1792
2021-09-20 17:26:44 GMT 39.812141 -104.818428 8,100 239 229 1792
2021-09-20 17:26:43 GMT 39.812561 -104.817490 7,700 239 237 1792
2021-09-20 17:26:41 GMT 39.813671 -104.815041 7,700 239 237 1792
2021-09-20 17:26:40 GMT 39.814758 -104.812607 7,700 239 238 1792
2021-09-20 17:26:38 GMT 39.815311 -104.811409 7,700 239 240 1792
2021-09-20 17:26:37 GMT 39.815868 -104.810150 7,700 239 240 1792
2021-09-20 17:26:36 GMT 39.817020 -104.807617 7,700 239 236 1792
2021-09-20 17:26:34 GMT 39.817551 -104.806419 7,500 239 237 1792
2021-09-20 17:26:33 GMT 39.818111 -104.805199 7,500 239 238 1792
2021-09-20 17:26:31 GMT 39.819199 -104.802719 7,500 239 238 1792
2021-09-20 17:26:30 GMT 39.819759 -104.801460 7,500 239 237 1792
2021-09-20 17:26:28 GMT 39.820850 -104.798981 7,300 238 237 1792
2021-09-20 17:26:27 GMT 39.821991 -104.796562 7,300 238 236 1792
2021-09-20 17:26:24 GMT 39.823132 -104.794121 7,200 239 234 2432
2021-09-20 17:26:23 GMT 39.823711 -104.792938 7,200 239 235 2432
2021-09-20 17:26:22 GMT 39.824268 -104.791687 7,200 239 232 2432
2021-09-20 17:26:21 GMT 39.824821 -104.790466 7,200 239 232 2432
2021-09-20 17:26:20 GMT 39.825371 -104.789284 7,000 239 233 2432
2021-09-20 17:26:18 GMT 39.826431 -104.786942 7,000 239 236 2432
2021-09-20 17:26:17 GMT 39.827518 -104.784500 7,000 239 232 2432
2021-09-20 17:26:15 GMT 39.828079 -104.783272 7,000 239 229 2432
2021-09-20 17:26:14 GMT 39.829128 -104.780907 7,000 239 228 2432
2021-09-20 17:26:12 GMT 39.829670 -104.779739 7,000 239 227 2432
2021-09-20 17:26:10 GMT 39.830719 -104.777443 7,000 239 226 2432
2021-09-20 17:26:09 GMT 39.831268 -104.776230 7,000 240 221 2432
2021-09-20 17:26:08 GMT 39.831799 -104.775101 7,000 240 219 2432
2021-09-20 17:26:07 GMT 39.832809 -104.772758 6,800 241 212 2432
2021-09-20 17:26:05 GMT 39.833279 -104.771622 6,800 241 210 2432
2021-09-20 17:26:04 GMT 39.834221 -104.769318 6,800 242 203 2432
2021-09-20 17:26:02 GMT 39.835060 -104.767174 6,800 242 205 2432
2021-09-20 17:26:00 GMT 39.835468 -104.766121 6,800 242 208 2432
2021-09-20 17:25:58 GMT 39.836319 -104.763893 6,800 243 206 2432
2021-09-20 17:25:57 GMT 39.836739 -104.762779 6,800 244 205 2432
2021-09-20 17:25:55 GMT 39.837540 -104.760559 6,700 247 204 2432
2021-09-20 17:25:54 GMT 39.837940 -104.759468 6,700 248 204 2432
2021-09-20 17:25:53 GMT 39.838638 -104.757233 6,650 252 204 2432
2021-09-20 17:25:51 GMT 39.838970 -104.756042 6,500 253 201 2432
2021-09-20 17:25:49 GMT 39.839489 -104.753754 6,500 256 200 2432
2021-09-20 17:25:48 GMT 39.839710 -104.752602 6,450 257 200 2432
2021-09-20 17:25:47 GMT 39.839939 -104.751427 6,375 258 198 2432
2021-09-20 17:25:45 GMT 39.840328 -104.749046 6,300 260 193 2432
2021-09-20 17:25:44 GMT 39.840462 -104.747849 6,300 261 190 2432
2021-09-20 17:25:43 GMT 39.840771 -104.745598 6,100 265 190 2432
2021-09-20 17:25:41 GMT 39.840870 -104.744469 6,100 267 190 2432
2021-09-20 17:25:40 GMT 39.840988 -104.742172 5,800 268 190 2432
2021-09-20 17:25:38 GMT 39.841061 -104.741074 5,800 270 195 2432
2021-09-20 17:25:37 GMT 39.841042 -104.739861 5,800 270 191 2432
2021-09-20 17:25:35 GMT 39.841011 -104.737480 5,800 270 188 2432
2021-09-20 17:25:34 GMT 39.841011 -104.736359 5,800 269 189 2432
2021-09-20 17:25:33 GMT 39.841019 -104.735222 5,750 269 189 2432
2021-09-20 17:25:31 GMT 39.841042 -104.732971 5,675 270 195 2432
2021-09-20 17:25:29 GMT 39.841042 -104.730621 5,575 271 192 2432
2021-09-20 17:25:28 GMT 39.841019 -104.729446 5,575 271 191 2432
2021-09-20 17:25:27 GMT 39.841000 -104.728302 5,525 271 192 2432
2021-09-20 17:25:26 GMT 39.840950 -104.726021 5,450 270 194 2432
2021-09-20 17:25:24 GMT 39.840939 -104.724831 5,425 270 191 448
2021-09-20 17:25:22 GMT 39.840931 -104.722511 5,175 270 187 448
2021-09-20 17:25:20 GMT 39.840931 -104.720261 5,175 271 189 448
2021-09-20 17:25:19 GMT 39.840919 -104.719078 5,175 270 184 448
2021-09-20 17:25:17 GMT 39.840889 -104.716888 5,175 271 188 448
2021-09-20 17:25:16 GMT 39.840858 -104.715767 5,150 270 188 448
2021-09-20 17:25:15 GMT 39.840839 -104.714661 5,150 270 187 448
2021-09-20 17:25:13 GMT 39.840820 -104.712410 5,125 270 183 0
2021-09-20 17:25:11 GMT 39.840832 -104.710228 5,125 270 177 256
2021-09-20 17:25:10 GMT 39.840820 -104.709152 5,125 270 174 256
2021-09-20 17:25:08 GMT 39.840809 -104.707069 5,125 270 169 256
2021-09-20 17:25:07 GMT 39.840801 -104.706047 5,125 270 166 -1120
2021-09-20 17:25:05 GMT 39.840778 -104.704079 5,150 270 159 -1120
2021-09-20 17:25:04 GMT 39.840759 -104.703102 5,150 270 155 0
2021-09-20 17:25:03 GMT 39.840752 -104.702179 5,150 270 153 0
2021-09-20 17:25:02 GMT 39.840752 -104.701233 5,150 270 148 0
2021-09-20 17:25:00 GMT 39.840752 -104.699463 5,150 270 141 0
2021-09-20 17:24:59 GMT 39.840729 -104.698593 5,150 270 137 0
2021-09-20 17:24:57 GMT 39.840752 -104.696960 5,150 270 132 0
2021-09-20 17:24:56 GMT 39.840740 -104.696167 5,150 270 128 -320
2021-09-20 17:24:54 GMT 39.840721 -104.694611 5,150 270 119 -320
2021-09-20 17:24:53 GMT 39.840721 -104.693871 5,150 270 115 -320
2021-09-20 17:24:51 GMT 39.840710 -104.692490 5,150 270 106 -320
2021-09-20 17:24:50 GMT 39.840721 -104.691856 5,150 271 103 -320
2021-09-20 17:24:48 GMT 39.840691 -104.690651 5,150 270 95 -320
2021-09-20 17:24:47 GMT 39.840698 -104.690063 5,150 270 90 -320
2021-09-20 17:24:46 GMT 39.840698 -104.689491 5,150 271 84 -320
2021-09-20 17:24:45 GMT 39.840691 -104.688980 5,150 271 80 0
2021-09-20 17:24:43 GMT 39.840660 -104.688026 5,150 269 71 0
2021-09-20 17:24:42 GMT 39.840660 -104.687172 0 269 62 0
2021-09-20 17:24:40 GMT 39.840649 -104.686798 0 268 59 0
2021-09-20 17:24:39 GMT 39.840679 -104.686447 0 270 55 0
2021-09-20 17:24:38 GMT 39.840672 -104.685799 0 269 43 0
2021-09-20 17:24:36 GMT 39.840698 -104.685478 0 273 33 0
2021-09-20 17:24:35 GMT 39.840660 -104.684990 0 268 19 0
2021-09-20 17:24:33 GMT 39.840649 -104.684822 0 263 14 0
2021-09-20 17:24:32 GMT 39.840649 -104.684677 0 262 9 0
2021-09-20 17:24:30 GMT 39.840672 -104.684486 0 270 2 0
2021-09-20 17:24:29 GMT 39.840691 -104.684448 0 270 0 0
2021-09-20 17:24:26 GMT 39.840679 -104.684448 0 270 0 0
2021-09-20 17:24:25 GMT 39.840672 -104.684433 0 270 1 0
2021-09-20 17:24:24 GMT 39.840672 -104.684464 0 270 0 0
2021-09-20 17:24:22 GMT 39.840672 -104.684464 0 270 0 0
2021-09-20 17:24:20 GMT 39.840649 -104.684464 0 270 2 0
2021-09-20 17:24:19 GMT 39.840672 -104.684448 0 270 0 0
2021-09-20 17:24:18 GMT 39.840672 -104.684448 0 270 0 0
2021-09-20 17:24:15 GMT 39.840679 -104.684448 0 270 0 0
2021-09-20 17:24:13 GMT 39.840672 -104.684464 0 271 0 0
2021-09-20 17:24:11 GMT 39.840672 -104.684464 0 271 0 0
2021-09-20 17:24:10 GMT 39.840672 -104.684448 0 271 0 0
2021-09-20 17:24:08 GMT 39.840660 -104.684441 0 271 1 0
2021-09-20 17:24:07 GMT 39.840660 -104.684464 0 271 2 0
2021-09-20 17:24:06 GMT 39.840679 -104.684441 0 272 1 0
2021-09-20 17:24:03 GMT 39.840679 -104.684433 0 274 3 0
2021-09-20 17:24:02 GMT 39.840679 -104.684448 0 278 2 0
2021-09-20 17:24:01 GMT 39.840679 -104.684471 0 285 2 0
2021-09-20 17:23:59 GMT 39.840679 -104.684509 0 302 6 0
2021-09-20 17:23:58 GMT 39.840679 -104.684471 0 294 6 0
2021-09-20 17:23:57 GMT 39.840660 -104.684441 0 281 6 0
2021-09-20 17:23:55 GMT 39.840649 -104.684410 0 259 8 0
2021-09-20 17:23:54 GMT 39.840630 -104.684349 0 241 7 0
2021-09-20 17:23:52 GMT 39.840630 -104.684280 0 212 8 0
2021-09-20 17:23:51 GMT 39.840679 -104.684174 0 181 9 0
2021-09-20 17:23:49 GMT 39.840721 -104.684113 0 168 10 0
2021-09-20 17:23:48 GMT 39.840740 -104.684143 0 178 13 0
2021-09-20 17:23:46 GMT 39.840851 -104.684158 0 185 14 0
2021-09-20 17:23:45 GMT 39.840912 -104.684128 0 179 15 0
2021-09-20 17:23:43 GMT 39.841049 -104.684143 0 186 15 0
2021-09-20 17:23:42 GMT 39.841110 -104.684151 0 191 16 0
2021-09-20 17:23:40 GMT 39.841259 -104.684090 0 178 18 0
2021-09-20 17:23:39 GMT 39.841358 -104.684090 0 174 15 0
2021-09-20 17:23:38 GMT 39.841438 -104.684097 0 174 14 0
2021-09-20 17:23:36 GMT 39.841560 -104.684120 0 180 16 0
2021-09-20 17:23:34 GMT 39.841789 -104.684097 0 172 16 0
2021-09-20 17:23:32 GMT 39.841930 -104.684143 0 185 16 0
2021-09-20 17:23:30 GMT 39.842010 -104.684120 0 180 14 0
2021-09-20 17:23:29 GMT 39.842072 -104.684128 0 186 15 0
2021-09-20 17:23:27 GMT 39.842209 -104.684113 0 180 13 0
2021-09-20 17:23:25 GMT 39.842331 -104.684082 0 168 14 0
2021-09-20 17:23:24 GMT 39.842400 -104.684128 0 180 13 0
2021-09-20 17:23:22 GMT 39.842522 -104.684143 0 187 14 0
2021-09-20 17:23:21 GMT 39.842659 -104.684097 0 178 14 0
2021-09-20 17:23:19 GMT 39.842731 -104.684090 0 176 13 0
2021-09-20 17:23:18 GMT 39.842850 -104.684097 0 173 15 0
2021-09-20 17:23:16 GMT 39.842911 -104.684143 0 185 16 0
2021-09-20 17:23:14 GMT 39.843071 -104.684128 0 188 16 0
2021-09-20 17:23:13 GMT 39.843140 -104.684113 0 185 16 0
2021-09-20 17:23:11 GMT 39.843281 -104.684082 0 176 18 0
2021-09-20 17:23:10 GMT 39.843349 -104.684097 0 179 20 0
2021-09-20 17:23:08 GMT 39.843540 -104.684097 0 180 18 0
2021-09-20 17:23:07 GMT 39.843620 -104.684067 0 176 18 0
2021-09-20 17:23:06 GMT 39.843788 -104.684120 0 187 17 0
2021-09-20 17:23:04 GMT 39.843891 -104.684052 0 168 16 0
2021-09-20 17:23:03 GMT 39.844028 -104.684097 0 180 17 0
2021-09-20 17:23:01 GMT 39.844090 -104.684120 0 183 19 0
2021-09-20 17:22:59 GMT 39.844349 -104.684082 0 174 19 0
2021-09-20 17:22:58 GMT 39.844452 -104.684128 0 185 18 0
2021-09-20 17:22:57 GMT 39.844501 -104.684113 0 184 22 0
2021-09-20 17:22:55 GMT 39.844601 -104.684120 0 186 24 0
2021-09-20 17:22:54 GMT 39.844799 -104.684059 0 177 25 0
2021-09-20 17:22:52 GMT 39.844921 -104.684067 0 178 22 0
2021-09-20 17:22:50 GMT 39.845150 -104.684059 0 178 21 0
2021-09-20 17:22:49 GMT 39.845230 -104.684067 0 177 24 0
2021-09-20 17:22:48 GMT 39.845348 -104.684090 0 180 23 0
2021-09-20 17:22:46 GMT 39.845558 -104.684090 0 182 24 0
2021-09-20 17:22:45 GMT 39.845692 -104.684082 0 182 22 0
2021-09-20 17:22:44 GMT 39.845890 -104.684067 0 181 23 0
2021-09-20 17:22:42 GMT 39.845989 -104.684059 0 179 23 0
2021-09-20 17:22:41 GMT 39.846088 -104.684052 0 177 23 0
2021-09-20 17:22:40 GMT 39.846180 -104.684036 0 175 25 0
2021-09-20 17:22:38 GMT 39.846420 -104.684082 0 181 23 0
2021-09-20 17:22:36 GMT 39.846642 -104.684082 0 185 20 0
2021-09-20 17:22:35 GMT 39.846729 -104.684036 0 177 20 0
2021-09-20 17:22:34 GMT 39.846809 -104.684036 0 177 22 0
2021-09-20 17:22:33 GMT 39.847019 -104.684029 0 173 21 0
2021-09-20 17:22:31 GMT 39.847111 -104.684090 0 183 21 0
2021-09-20 17:22:30 GMT 39.847321 -104.684052 0 176 18 0
2021-09-20 17:22:28 GMT 39.847401 -104.684082 0 180 19 0
2021-09-20 17:22:26 GMT 39.847569 -104.684090 0 184 21 0
2021-09-20 17:22:25 GMT 39.847759 -104.684036 0 174 21 0
2021-09-20 17:22:23 GMT 39.847851 -104.684082 0 183 22 0
2021-09-20 17:22:21 GMT 39.848061 -104.684059 0 183 21 0
2021-09-20 17:22:19 GMT 39.848259 -104.684052 0 183 20 0
2021-09-20 17:22:17 GMT 39.848450 -104.684029 0 179 20 0
2021-09-20 17:22:16 GMT 39.848549 -104.684029 0 177 20 0
2021-09-20 17:22:15 GMT 39.848728 -104.684036 0 180 19 0
2021-09-20 17:22:13 GMT 39.848808 -104.684036 0 181 20 0
2021-09-20 17:22:11 GMT 39.849010 -104.684059 0 187 19 0
2021-09-20 17:22:10 GMT 39.849098 -104.684021 0 177 19 0
2021-09-20 17:22:09 GMT 39.849190 -104.684013 0 171 17 0
2021-09-20 17:22:08 GMT 39.849281 -104.684036 0 176 16 0
2021-09-20 17:22:07 GMT 39.849411 -104.684052 0 181 19 0
2021-09-20 17:22:05 GMT 39.849499 -104.684036 0 180 18 0
2021-09-20 17:22:03 GMT 39.849670 -104.684036 0 181 18 0
2021-09-20 17:22:02 GMT 39.849751 -104.684059 0 186 18 0
2021-09-20 17:22:00 GMT 39.849899 -104.684029 0 180 18 0
2021-09-20 17:21:59 GMT 39.850071 -104.684013 0 179 16 0
2021-09-20 17:21:57 GMT 39.850159 -104.684013 0 176 13 0
2021-09-20 17:21:56 GMT 39.850201 -104.684021 0 181 17 0
2021-09-20 17:21:54 GMT 39.850349 -104.683990 0 174 19 0
2021-09-20 17:21:53 GMT 39.850430 -104.684021 0 179 19 0
2021-09-20 17:21:51 GMT 39.850609 -104.684029 0 181 19 0
2021-09-20 17:21:49 GMT 39.850780 -104.684029 0 180 21 0
2021-09-20 17:21:48 GMT 39.850880 -104.684036 0 186 21 0
2021-09-20 17:21:47 GMT 39.851070 -104.683998 0 181 19 0
2021-09-20 17:21:45 GMT 39.851158 -104.683998 0 182 20 0
2021-09-20 17:21:44 GMT 39.851341 -104.683983 0 176 19 0
2021-09-20 17:21:42 GMT 39.851440 -104.683983 0 175 18 0
2021-09-20 17:21:41 GMT 39.851608 -104.683998 0 179 19 0
2021-09-20 17:21:40 GMT 39.851700 -104.683990 0 177 18 0
2021-09-20 17:21:38 GMT 39.851791 -104.683998 0 178 19 0
2021-09-20 17:21:37 GMT 39.851898 -104.683990 0 173 15 0
2021-09-20 17:21:35 GMT 39.852089 -104.684036 0 185 18 0
2021-09-20 17:21:34 GMT 39.852180 -104.684013 0 182 18 0
2021-09-20 17:21:32 GMT 39.852280 -104.684021 0 185 16 0
2021-09-20 17:21:31 GMT 39.852421 -104.683990 0 179 16 0
2021-09-20 17:21:29 GMT 39.852489 -104.683983 0 175 17 0
2021-09-20 17:21:27 GMT 39.852650 -104.684013 0 180 17 0
2021-09-20 17:21:26 GMT 39.852718 -104.683998 0 180 18 0
2021-09-20 17:21:25 GMT 39.852879 -104.684013 0 183 17 0
2021-09-20 17:21:23 GMT 39.852982 -104.684021 0 185 14 0
2021-09-20 17:21:21 GMT 39.853088 -104.683968 0 172 15 0
2021-09-20 17:21:20 GMT 39.853168 -104.683990 0 175 14 0
2021-09-20 17:21:19 GMT 39.853298 -104.684021 0 184 14 0
2021-09-20 17:21:17 GMT 39.853401 -104.683998 0 177 11 0
2021-09-20 17:21:15 GMT 39.853500 -104.684029 0 187 15 0
2021-09-20 17:21:14 GMT 39.853561 -104.684021 0 187 15 0
2021-09-20 17:21:13 GMT 39.853691 -104.683968 0 180 15 0
2021-09-20 17:21:11 GMT 39.853760 -104.683990 0 186 14 0
2021-09-20 17:21:09 GMT 39.853889 -104.683960 0 179 14 0
2021-09-20 17:21:08 GMT 39.853958 -104.683937 0 172 15 0
2021-09-20 17:21:06 GMT 39.854149 -104.684013 0 185 15 0
2021-09-20 17:21:04 GMT 39.854221 -104.683990 0 183 15 0
2021-09-20 17:21:02 GMT 39.854340 -104.683968 0 180 17 0
2021-09-20 17:21:01 GMT 39.854431 -104.683983 0 182 16 0
2021-09-20 17:20:59 GMT 39.854568 -104.683929 0 173 15 0
2021-09-20 17:20:58 GMT 39.854641 -104.683952 0 178 16 0
2021-09-20 17:20:56 GMT 39.854778 -104.683952 0 173 17 0
2021-09-20 17:20:55 GMT 39.854858 -104.683998 0 181 17 0
2021-09-20 17:20:54 GMT 39.854950 -104.683968 0 172 17 0
2021-09-20 17:20:52 GMT 39.855091 -104.683968 0 174 18 0
2021-09-20 17:20:51 GMT 39.855251 -104.683990 0 185 18 0
2021-09-20 17:20:49 GMT 39.855320 -104.684021 0 195 18 0
2021-09-20 17:20:47 GMT 39.855461 -104.683968 0 205 19 0
2021-09-20 17:20:45 GMT 39.855621 -104.683891 0 215 17 0
2021-09-20 17:20:44 GMT 39.855759 -104.683769 0 230 15 0
2021-09-20 17:20:42 GMT 39.855820 -104.683731 0 243 15 0
2021-09-20 17:20:41 GMT 39.855881 -104.683662 0 255 15 0
2021-09-20 17:20:39 GMT 39.855919 -104.683487 0 258 14 0
2021-09-20 17:20:38 GMT 39.855949 -104.683403 0 267 14 0
2021-09-20 17:20:36 GMT 39.855968 -104.683243 0 272 15 0
2021-09-20 17:20:35 GMT 39.855961 -104.683159 0 268 16 0
2021-09-20 17:20:34 GMT 39.855968 -104.683067 0 272 17 0
2021-09-20 17:20:33 GMT 39.855949 -104.682869 0 264 16 0
2021-09-20 17:20:31 GMT 39.855961 -104.682693 0 273 16 0
2021-09-20 17:20:29 GMT 39.855949 -104.682587 0 270 16 0
2021-09-20 17:20:28 GMT 39.855961 -104.682411 0 271 16 0
2021-09-20 17:20:26 GMT 39.855949 -104.682312 0 270 15 0
2021-09-20 17:20:24 GMT 39.855968 -104.682091 0 275 13 0
2021-09-20 17:20:23 GMT 39.855942 -104.681992 0 267 11 0
2021-09-20 17:20:22 GMT 39.855930 -104.681953 0 264 13 0
2021-09-20 17:20:20 GMT 39.855949 -104.681801 0 267 15 0
2021-09-20 17:20:19 GMT 39.855949 -104.681602 0 269 13 0
2021-09-20 17:20:17 GMT 39.855949 -104.681503 0 267 12 0
2021-09-20 17:20:15 GMT 39.855949 -104.681381 0 268 13 0
2021-09-20 17:20:14 GMT 39.855949 -104.681313 0 268 14 0
2021-09-20 17:20:12 GMT 39.855949 -104.681129 0 269 12 0
2021-09-20 17:20:11 GMT 39.855961 -104.681068 0 271 12 0
2021-09-20 17:20:10 GMT 39.855949 -104.680901 0 271 11 0
2021-09-20 17:20:08 GMT 39.855942 -104.680763 0 268 11 0
2021-09-20 17:20:06 GMT 39.855949 -104.680702 0 266 12 0
2021-09-20 17:20:05 GMT 39.855949 -104.680634 0 267 12 0
2021-09-20 17:20:04 GMT 39.855942 -104.680557 0 265 12 0
2021-09-20 17:20:03 GMT 39.855942 -104.680489 0 264 12 0
2021-09-20 17:20:02 GMT 39.855961 -104.680367 0 269 13 0
2021-09-20 17:19:59 GMT 39.855949 -104.680206 0 264 13 0
2021-09-20 17:19:58 GMT 39.855961 -104.680130 0 267 13 0
2021-09-20 17:19:57 GMT 39.855968 -104.680061 0 264 14 0
2021-09-20 17:19:55 GMT 39.855999 -104.679901 0 272 14 0
2021-09-20 17:19:53 GMT 39.855980 -104.679718 0 269 14 0
2021-09-20 17:19:52 GMT 39.855991 -104.679657 0 268 15 0
2021-09-20 17:19:51 GMT 39.855980 -104.679459 0 266 14 0
2021-09-20 17:19:49 GMT 39.856010 -104.679390 0 272 14 0
2021-09-20 17:19:48 GMT 39.855980 -104.679291 0 267 14 0
2021-09-20 17:19:46 GMT 39.856010 -104.679123 0 273 15 0
2021-09-20 17:19:45 GMT 39.855999 -104.679039 0 274 15 0
2021-09-20 17:19:43 GMT 39.855991 -104.678871 0 270 17 0
2021-09-20 17:19:41 GMT 39.856010 -104.678658 0 276 17 0
2021-09-20 17:19:40 GMT 39.855991 -104.678551 0 273 17 0
2021-09-20 17:19:38 GMT 39.855949 -104.678337 0 267 17 0
2021-09-20 17:19:37 GMT 39.855961 -104.678253 0 268 18 0
2021-09-20 17:19:36 GMT 39.855980 -104.678062 0 270 19 0
2021-09-20 17:19:34 GMT 39.855991 -104.677948 0 273 19 0
2021-09-20 17:19:33 GMT 39.855999 -104.677834 0 278 18 0
2021-09-20 17:19:31 GMT 39.855949 -104.677567 0 272 15 0
2021-09-20 17:19:30 GMT 39.855949 -104.677521 0 273 18 0
2021-09-20 17:19:29 GMT 39.855942 -104.677406 0 271 18 0
2021-09-20 17:19:27 GMT 39.855942 -104.677200 0 268 18 0
2021-09-20 17:19:25 GMT 39.855930 -104.676964 0 264 18 0
2021-09-20 17:19:24 GMT 39.855911 -104.676788 0 259 16 0
2021-09-20 17:19:22 GMT 39.855900 -104.676468 0 250 18 0
2021-09-20 17:19:21 GMT 39.855930 -104.676453 0 264 18 0

Making use of Plane Finder data

You are free to use the raw flight data, aircraft information and images provided in this report for your own purposes provided the data is correctly attributed to Plane Finder. We ask that you please credit Plane Finder and link to planefinder.net in close proximity to the content.

Optionally one of the following logos (no smaller then 150x24px) can be used and must link to planefinder.net

Embedding the Plane Finder map

You are welcome to embed the Plane Finder playback map on your website to offer visitors a more interactive experience. We suggest using the following HTML code:

<iframe src="//planefinder.net/data/report/UA5889-N206SY-7700-squawk-2021-09-20/map" width="800" height="600" seamless="seamless"></iframe>

Where our data comes from

Plane Finder has a global network of data feeds and antenna radars that receive data broadcast directly from aircraft. The primary technologies used are ADS-B and MLAT. We also show feeds from the FAA and a FLARM glider feed.

Click here to find out more about the Plane Finder network.

How we collect our data